<?xml version="1.0" encoding="UTF-8"?>
<gpx xmlns:xsi="http://www.w3.org/2001/XMLSchema-instance" xmlns="http://www.topografix.com/GPX/1/1" xsi:schemaLocation="http://www.topografix.com/GPX/1/1 http://www.topografix.com/GPX/1/1/gpx.xsd" version="1.1">
  <metadata>
    <name>Alpha Win - Lake George (Bike - Olympic)</name>
    <copyright author="OpenStreetMap contributors">
      <year>2020</year>
      <license>https://www.openstreetmap.org/copyright</license>
    </copyright>
    <link href="https://www.strava.com/routes/2855799061698178300"/>
  </metadata>
  <trk>
    <name>Alpha Win - Lake George (Bike - Olympic)</name>
    <link href="https://www.strava.com/routes/2855799061698178300"/>
    <type>Radfahrt</type>
    <trkseg>
      <trkpt lat="43.419149" lon="-73.708088">
        <ele>100.15</ele>
        <time>2021-09-04T08:30:00.000Z</time>
      </trkpt>
      <trkpt lat="43.419181" lon="-73.707872">
        <ele>100.210001</ele>
        <time>2021-09-04T08:30:02.000Z</time>
      </trkpt>
      <trkpt lat="43.41916" lon="-73.707685">
        <ele>100.119995</ele>
        <time>2021-09-04T08:30:04.000Z</time>
      </trkpt>
      <trkpt lat="43.41861" lon="-73.706752">
        <ele>100.330004</ele>
        <time>2021-09-04T08:30:14.000Z</time>
      </trkpt>
      <trkpt lat="43.418507" lon="-73.706661">
        <ele>100.460001</ele>
        <time>2021-09-04T08:30:15.000Z</time>
      </trkpt>
      <trkpt lat="43.418328" lon="-73.706587">
        <ele>100.979996</ele>
        <time>2021-09-04T08:30:17.000Z</time>
      </trkpt>
      <trkpt lat="43.418193" lon="-73.706403">
        <ele>101.400009</ele>
        <time>2021-09-04T08:30:19.000Z</time>
      </trkpt>
      <trkpt lat="43.418325" lon="-73.706175">
        <ele>100.719993</ele>
        <time>2021-09-04T08:30:21.000Z</time>
      </trkpt>
      <trkpt lat="43.418362" lon="-73.706116">
        <ele>100.340005</ele>
        <time>2021-09-04T08:30:22.000Z</time>
      </trkpt>
      <trkpt lat="43.418282" lon="-73.705945">
        <ele>100.430006</ele>
        <time>2021-09-04T08:30:24.000Z</time>
      </trkpt>
      <trkpt lat="43.418189" lon="-73.705909">
        <ele>100.430009</ele>
        <time>2021-09-04T08:30:25.000Z</time>
      </trkpt>
      <trkpt lat="43.418062" lon="-73.705727">
        <ele>100.479998</ele>
        <time>2021-09-04T08:30:27.000Z</time>
      </trkpt>
      <trkpt lat="43.417984" lon="-73.705562">
        <ele>100.470001</ele>
        <time>2021-09-04T08:30:29.000Z</time>
      </trkpt>
      <trkpt lat="43.417857" lon="-73.705457">
        <ele>100.470008</ele>
        <time>2021-09-04T08:30:31.000Z</time>
      </trkpt>
      <trkpt lat="43.417604" lon="-73.705431">
        <ele>100.559995</ele>
        <time>2021-09-04T08:30:34.000Z</time>
      </trkpt>
      <trkpt lat="43.417237" lon="-73.705181">
        <ele>100.439992</ele>
        <time>2021-09-04T08:30:39.000Z</time>
      </trkpt>
      <trkpt lat="43.416953" lon="-73.705109">
        <ele>100.839993</ele>
        <time>2021-09-04T08:30:42.000Z</time>
      </trkpt>
      <trkpt lat="43.416764" lon="-73.704824">
        <ele>100.909995</ele>
        <time>2021-09-04T08:30:45.000Z</time>
      </trkpt>
      <trkpt lat="43.416596" lon="-73.704507">
        <ele>100.740005</ele>
        <time>2021-09-04T08:30:48.000Z</time>
      </trkpt>
      <trkpt lat="43.416489" lon="-73.704159">
        <ele>100.289999</ele>
        <time>2021-09-04T08:30:51.000Z</time>
      </trkpt>
      <trkpt lat="43.416392" lon="-73.703808">
        <ele>100.239995</ele>
        <time>2021-09-04T08:30:54.000Z</time>
      </trkpt>
      <trkpt lat="43.416356" lon="-73.703423">
        <ele>100.220007</ele>
        <time>2021-09-04T08:30:57.000Z</time>
      </trkpt>
      <trkpt lat="43.416376" lon="-73.703046">
        <ele>100.160006</ele>
        <time>2021-09-04T08:31:00.000Z</time>
      </trkpt>
      <trkpt lat="43.416487" lon="-73.702283">
        <ele>99.850009</ele>
        <time>2021-09-04T08:31:06.000Z</time>
      </trkpt>
      <trkpt lat="43.416636" lon="-73.701951">
        <ele>99.679995</ele>
        <time>2021-09-04T08:31:09.000Z</time>
      </trkpt>
      <trkpt lat="43.41693" lon="-73.701571">
        <ele>99.699996</ele>
        <time>2021-09-04T08:31:13.000Z</time>
      </trkpt>
      <trkpt lat="43.417153" lon="-73.701234">
        <ele>99.579997</ele>
        <time>2021-09-04T08:31:17.000Z</time>
      </trkpt>
      <trkpt lat="43.417319" lon="-73.700881">
        <ele>99.360009</ele>
        <time>2021-09-04T08:31:20.000Z</time>
      </trkpt>
      <trkpt lat="43.417431" lon="-73.700436">
        <ele>99.390009</ele>
        <time>2021-09-04T08:31:24.000Z</time>
      </trkpt>
      <trkpt lat="43.417515" lon="-73.699818">
        <ele>100.820006</ele>
        <time>2021-09-04T08:31:29.000Z</time>
      </trkpt>
      <trkpt lat="43.417526" lon="-73.698886">
        <ele>103.140009</ele>
        <time>2021-09-04T08:31:37.000Z</time>
      </trkpt>
      <trkpt lat="43.417505" lon="-73.698393">
        <ele>105.969991</ele>
        <time>2021-09-04T08:31:41.000Z</time>
      </trkpt>
      <trkpt lat="43.4173540024" lon="-73.6976399981">
        <ele>111.640001</ele>
        <time>2021-09-04T08:31:47.000Z</time>
      </trkpt>
      <trkpt lat="43.417198" lon="-73.696904">
        <ele>118.509997</ele>
        <time>2021-09-04T08:31:53.000Z</time>
      </trkpt>
      <trkpt lat="43.417002" lon="-73.696939">
        <ele>118.040001</ele>
        <time>2021-09-04T08:31:55.000Z</time>
      </trkpt>
      <trkpt lat="43.416943" lon="-73.696864">
        <ele>118.219999</ele>
        <time>2021-09-04T08:31:56.000Z</time>
      </trkpt>
      <trkpt lat="43.416816" lon="-73.696763">
        <ele>118.540009</ele>
        <time>2021-09-04T08:31:58.000Z</time>
      </trkpt>
      <trkpt lat="43.416471" lon="-73.696692">
        <ele>119.679991</ele>
        <time>2021-09-04T08:32:02.000Z</time>
      </trkpt>
      <trkpt lat="43.416473" lon="-73.69669">
        <ele>119.680004</ele>
        <time>2021-09-04T08:32:02.000Z</time>
      </trkpt>
      <trkpt lat="43.416369" lon="-73.696674">
        <ele>120.379991</ele>
        <time>2021-09-04T08:32:03.000Z</time>
      </trkpt>
      <trkpt lat="43.415747" lon="-73.69644">
        <ele>124.759992</ele>
        <time>2021-09-04T08:32:10.000Z</time>
      </trkpt>
      <trkpt lat="43.4150103336" lon="-73.6962296617">
        <ele>126.470002</ele>
        <time>2021-09-04T08:32:18.000Z</time>
      </trkpt>
      <trkpt lat="43.4142716669" lon="-73.6960283284">
        <ele>127.690005</ele>
        <time>2021-09-04T08:32:26.000Z</time>
      </trkpt>
      <trkpt lat="43.413524" lon="-73.695839">
        <ele>126.730005</ele>
        <time>2021-09-04T08:32:34.000Z</time>
      </trkpt>
      <trkpt lat="43.4128916668" lon="-73.6957246643">
        <ele>127.140004</ele>
        <time>2021-09-04T08:32:41.000Z</time>
      </trkpt>
      <trkpt lat="43.4122503335" lon="-73.6955993309">
        <ele>127.210001</ele>
        <time>2021-09-04T08:32:48.000Z</time>
      </trkpt>
      <trkpt lat="43.411608" lon="-73.69549">
        <ele>126.729999</ele>
        <time>2021-09-04T08:32:55.000Z</time>
      </trkpt>
      <trkpt lat="43.411158" lon="-73.695435">
        <ele>126.120002</ele>
        <time>2021-09-04T08:33:00.000Z</time>
      </trkpt>
      <trkpt lat="43.410729" lon="-73.695461">
        <ele>125.260003</ele>
        <time>2021-09-04T08:33:05.000Z</time>
      </trkpt>
      <trkpt lat="43.409941" lon="-73.695606">
        <ele>125.970005</ele>
        <time>2021-09-04T08:33:14.000Z</time>
      </trkpt>
      <trkpt lat="43.4094430002" lon="-73.695861002">
        <ele>126.76</ele>
        <time>2021-09-04T08:33:20.000Z</time>
      </trkpt>
      <trkpt lat="43.408968" lon="-73.696092">
        <ele>126.970007</ele>
        <time>2021-09-04T08:33:26.000Z</time>
      </trkpt>
      <trkpt lat="43.408459" lon="-73.696305">
        <ele>125.910005</ele>
        <time>2021-09-04T08:33:32.000Z</time>
      </trkpt>
      <trkpt lat="43.407932" lon="-73.69643">
        <ele>124.409997</ele>
        <time>2021-09-04T08:33:38.000Z</time>
      </trkpt>
      <trkpt lat="43.407427" lon="-73.696523">
        <ele>124.289992</ele>
        <time>2021-09-04T08:33:44.000Z</time>
      </trkpt>
      <trkpt lat="43.407346" lon="-73.696544">
        <ele>124.340004</ele>
        <time>2021-09-04T08:33:45.000Z</time>
      </trkpt>
      <trkpt lat="43.406492" lon="-73.696514">
        <ele>127.179999</ele>
        <time>2021-09-04T08:33:55.000Z</time>
      </trkpt>
      <trkpt lat="43.4056513333" lon="-73.696505666">
        <ele>133.970004</ele>
        <time>2021-09-04T08:34:04.000Z</time>
      </trkpt>
      <trkpt lat="43.4048026667" lon="-73.6964743327">
        <ele>138.939994</ele>
        <time>2021-09-04T08:34:13.000Z</time>
      </trkpt>
      <trkpt lat="43.403953" lon="-73.696453">
        <ele>145.089998</ele>
        <time>2021-09-04T08:34:22.000Z</time>
      </trkpt>
      <trkpt lat="43.4035040001" lon="-73.6964379999">
        <ele>146.150009</ele>
        <time>2021-09-04T08:34:27.000Z</time>
      </trkpt>
      <trkpt lat="43.403058" lon="-73.696425">
        <ele>147.490009</ele>
        <time>2021-09-04T08:34:32.000Z</time>
      </trkpt>
      <trkpt lat="43.402674" lon="-73.696445">
        <ele>147.879991</ele>
        <time>2021-09-04T08:34:36.000Z</time>
      </trkpt>
      <trkpt lat="43.402014" lon="-73.696519">
        <ele>147.670002</ele>
        <time>2021-09-04T08:34:43.000Z</time>
      </trkpt>
      <trkpt lat="43.40148" lon="-73.696718">
        <ele>147.490004</ele>
        <time>2021-09-04T08:34:49.000Z</time>
      </trkpt>
      <trkpt lat="43.40065" lon="-73.697169">
        <ele>148.580005</ele>
        <time>2021-09-04T08:34:59.000Z</time>
      </trkpt>
      <trkpt lat="43.400299" lon="-73.697313">
        <ele>150.410009</ele>
        <time>2021-09-04T08:35:03.000Z</time>
      </trkpt>
      <trkpt lat="43.399992" lon="-73.697399">
        <ele>152.309999</ele>
        <time>2021-09-04T08:35:06.000Z</time>
      </trkpt>
      <trkpt lat="43.399317" lon="-73.69721">
        <ele>158.440003</ele>
        <time>2021-09-04T08:35:14.000Z</time>
      </trkpt>
      <trkpt lat="43.398781" lon="-73.697035">
        <ele>161.309991</ele>
        <time>2021-09-04T08:35:20.000Z</time>
      </trkpt>
      <trkpt lat="43.398314" lon="-73.697071">
        <ele>162.780004</ele>
        <time>2021-09-04T08:35:25.000Z</time>
      </trkpt>
      <trkpt lat="43.397888" lon="-73.697264">
        <ele>162.929993</ele>
        <time>2021-09-04T08:35:30.000Z</time>
      </trkpt>
      <trkpt lat="43.397388" lon="-73.697661">
        <ele>162.499997</ele>
        <time>2021-09-04T08:35:36.000Z</time>
      </trkpt>
      <trkpt lat="43.396893" lon="-73.698121">
        <ele>162.65</ele>
        <time>2021-09-04T08:35:43.000Z</time>
      </trkpt>
      <trkpt lat="43.396574" lon="-73.698558">
        <ele>162.909997</ele>
        <time>2021-09-04T08:35:48.000Z</time>
      </trkpt>
      <trkpt lat="43.396229" lon="-73.699115">
        <ele>163.419996</ele>
        <time>2021-09-04T08:35:54.000Z</time>
      </trkpt>
      <trkpt lat="43.3959" lon="-73.699713">
        <ele>164.199994</ele>
        <time>2021-09-04T08:36:00.000Z</time>
      </trkpt>
      <trkpt lat="43.395644" lon="-73.700544">
        <ele>165.709998</ele>
        <time>2021-09-04T08:36:07.000Z</time>
      </trkpt>
      <trkpt lat="43.395527" lon="-73.701139">
        <ele>166.220003</ele>
        <time>2021-09-04T08:36:12.000Z</time>
      </trkpt>
      <trkpt lat="43.395374004" lon="-73.7020990022">
        <ele>168.139996</ele>
        <time>2021-09-04T08:36:20.000Z</time>
      </trkpt>
      <trkpt lat="43.395231" lon="-73.703053">
        <ele>170.319991</ele>
        <time>2021-09-04T08:36:28.000Z</time>
      </trkpt>
      <trkpt lat="43.395229" lon="-73.703076">
        <ele>170.359991</ele>
        <time>2021-09-04T08:36:28.000Z</time>
      </trkpt>
      <trkpt lat="43.395184" lon="-73.703355">
        <ele>171.270008</ele>
        <time>2021-09-04T08:36:30.000Z</time>
      </trkpt>
      <trkpt lat="43.395123" lon="-73.703397">
        <ele>171.269994</ele>
        <time>2021-09-04T08:36:31.000Z</time>
      </trkpt>
      <trkpt lat="43.395086" lon="-73.703498">
        <ele>171.450005</ele>
        <time>2021-09-04T08:36:32.000Z</time>
      </trkpt>
      <trkpt lat="43.394987" lon="-73.70358">
        <ele>171.450009</ele>
        <time>2021-09-04T08:36:33.000Z</time>
      </trkpt>
      <trkpt lat="43.394182" lon="-73.703658">
        <ele>172.400007</ele>
        <time>2021-09-04T08:36:42.000Z</time>
      </trkpt>
      <trkpt lat="43.3935040001" lon="-73.7037830016">
        <ele>173.160003</ele>
        <time>2021-09-04T08:36:50.000Z</time>
      </trkpt>
      <trkpt lat="43.392803" lon="-73.703922">
        <ele>174.079993</ele>
        <time>2021-09-04T08:36:58.000Z</time>
      </trkpt>
      <trkpt lat="43.392468" lon="-73.703562">
        <ele>172.939991</ele>
        <time>2021-09-04T08:37:03.000Z</time>
      </trkpt>
      <trkpt lat="43.392521" lon="-73.704103">
        <ele>173.849995</ele>
        <time>2021-09-04T08:37:07.000Z</time>
      </trkpt>
      <trkpt lat="43.3933490002" lon="-73.7039160025">
        <ele>173.660001</ele>
        <time>2021-09-04T08:37:16.000Z</time>
      </trkpt>
      <trkpt lat="43.394176" lon="-73.703723">
        <ele>172.450006</ele>
        <time>2021-09-04T08:37:25.000Z</time>
      </trkpt>
      <trkpt lat="43.394188" lon="-73.703659">
        <ele>172.649998</ele>
        <time>2021-09-04T08:37:26.000Z</time>
      </trkpt>
      <trkpt lat="43.3934910001" lon="-73.7037870016">
        <ele>173.989996</ele>
        <time>2021-09-04T08:37:34.000Z</time>
      </trkpt>
      <trkpt lat="43.392816" lon="-73.703931">
        <ele>173.919991</ele>
        <time>2021-09-04T08:37:42.000Z</time>
      </trkpt>
      <trkpt lat="43.3923890008" lon="-73.7034659965">
        <ele>172.800008</ele>
        <time>2021-09-04T08:37:48.000Z</time>
      </trkpt>
      <trkpt lat="43.391955" lon="-73.702992">
        <ele>171.679993</ele>
        <time>2021-09-04T08:37:54.000Z</time>
      </trkpt>
      <trkpt lat="43.391625" lon="-73.702691">
        <ele>171.330002</ele>
        <time>2021-09-04T08:37:58.000Z</time>
      </trkpt>
      <trkpt lat="43.3910093335" lon="-73.7025503305">
        <ele>170.639994</ele>
        <time>2021-09-04T08:38:05.000Z</time>
      </trkpt>
      <trkpt lat="43.3903706669" lon="-73.7024256639">
        <ele>169.920002</ele>
        <time>2021-09-04T08:38:12.000Z</time>
      </trkpt>
      <trkpt lat="43.389759" lon="-73.702277">
        <ele>169.260005</ele>
        <time>2021-09-04T08:38:19.000Z</time>
      </trkpt>
      <trkpt lat="43.3889470003" lon="-73.7021059952">
        <ele>169.160005</ele>
        <time>2021-09-04T08:38:28.000Z</time>
      </trkpt>
      <trkpt lat="43.3881490003" lon="-73.7019199952">
        <ele>169.220005</ele>
        <time>2021-09-04T08:38:37.000Z</time>
      </trkpt>
      <trkpt lat="43.387349" lon="-73.701748">
        <ele>169.040003</ele>
        <time>2021-09-04T08:38:46.000Z</time>
      </trkpt>
      <trkpt lat="43.387019" lon="-73.701638">
        <ele>168.919996</ele>
        <time>2021-09-04T08:38:50.000Z</time>
      </trkpt>
      <trkpt lat="43.386705" lon="-73.701317">
        <ele>168.810007</ele>
        <time>2021-09-04T08:38:54.000Z</time>
      </trkpt>
      <trkpt lat="43.386042" lon="-73.701166">
        <ele>168.090006</ele>
        <time>2021-09-04T08:39:01.000Z</time>
      </trkpt>
      <trkpt lat="43.3855220001" lon="-73.7010179989">
        <ele>167.580008</ele>
        <time>2021-09-04T08:39:07.000Z</time>
      </trkpt>
      <trkpt lat="43.385022" lon="-73.700883">
        <ele>166.690008</ele>
        <time>2021-09-04T08:39:13.000Z</time>
      </trkpt>
      <trkpt lat="43.384575" lon="-73.7009300003">
        <ele>165.500004</ele>
        <time>2021-09-04T08:39:18.000Z</time>
      </trkpt>
      <trkpt lat="43.384119" lon="-73.700973">
        <ele>164.839997</ele>
        <time>2021-09-04T08:39:23.000Z</time>
      </trkpt>
      <trkpt lat="43.383312" lon="-73.700937">
        <ele>163.509998</ele>
        <time>2021-09-04T08:39:32.000Z</time>
      </trkpt>
      <trkpt lat="43.382861" lon="-73.7008859997">
        <ele>162.939995</ele>
        <time>2021-09-04T08:39:37.000Z</time>
      </trkpt>
      <trkpt lat="43.382397" lon="-73.700848">
        <ele>161.819993</ele>
        <time>2021-09-04T08:39:42.000Z</time>
      </trkpt>
      <trkpt lat="43.3817610001" lon="-73.7007309989">
        <ele>160.679991</ele>
        <time>2021-09-04T08:39:49.000Z</time>
      </trkpt>
      <trkpt lat="43.38114" lon="-73.700627">
        <ele>159.349995</ele>
        <time>2021-09-04T08:39:56.000Z</time>
      </trkpt>
      <trkpt lat="43.3806630003" lon="-73.7004539986">
        <ele>158.089993</ele>
        <time>2021-09-04T08:40:01.000Z</time>
      </trkpt>
      <trkpt lat="43.380178" lon="-73.700268">
        <ele>157.709995</ele>
        <time>2021-09-04T08:40:07.000Z</time>
      </trkpt>
      <trkpt lat="43.3796253344" lon="-73.6999256605">
        <ele>157.059999</ele>
        <time>2021-09-04T08:40:14.000Z</time>
      </trkpt>
      <trkpt lat="43.3790736677" lon="-73.6995643272">
        <ele>156.729993</ele>
        <time>2021-09-04T08:40:21.000Z</time>
      </trkpt>
      <trkpt lat="43.378521" lon="-73.699234">
        <ele>156.359999</ele>
        <time>2021-09-04T08:40:28.000Z</time>
      </trkpt>
      <trkpt lat="43.377959" lon="-73.698904">
        <ele>156.019995</ele>
        <time>2021-09-04T08:40:35.000Z</time>
      </trkpt>
      <trkpt lat="43.3774460001" lon="-73.6987199983">
        <ele>155.669992</ele>
        <time>2021-09-04T08:40:41.000Z</time>
      </trkpt>
      <trkpt lat="43.376956" lon="-73.698519">
        <ele>155.649994</ele>
        <time>2021-09-04T08:40:47.000Z</time>
      </trkpt>
      <trkpt lat="43.3762946667" lon="-73.698433998">
        <ele>155.580002</ele>
        <time>2021-09-04T08:40:54.000Z</time>
      </trkpt>
      <trkpt lat="43.3756323334" lon="-73.698334998">
        <ele>155.869994</ele>
        <time>2021-09-04T08:41:01.000Z</time>
      </trkpt>
      <trkpt lat="43.374969" lon="-73.698243">
        <ele>155.99</ele>
        <time>2021-09-04T08:41:08.000Z</time>
      </trkpt>
      <trkpt lat="43.374202" lon="-73.698079">
        <ele>155.950001</ele>
        <time>2021-09-04T08:41:17.000Z</time>
      </trkpt>
      <trkpt lat="43.3734420004" lon="-73.6977989966">
        <ele>155.899992</ele>
        <time>2021-09-04T08:41:26.000Z</time>
      </trkpt>
      <trkpt lat="43.372688" lon="-73.697526">
        <ele>155.599996</ele>
        <time>2021-09-04T08:41:35.000Z</time>
      </trkpt>
      <trkpt lat="43.372008" lon="-73.697099">
        <ele>155.090004</ele>
        <time>2021-09-04T08:41:43.000Z</time>
      </trkpt>
      <trkpt lat="43.3714500007" lon="-73.696668996">
        <ele>154.510001</ele>
        <time>2021-09-04T08:41:50.000Z</time>
      </trkpt>
      <trkpt lat="43.370886" lon="-73.69623">
        <ele>154.709993</ele>
        <time>2021-09-04T08:41:57.000Z</time>
      </trkpt>
      <trkpt lat="43.370063" lon="-73.696143">
        <ele>157.720001</ele>
        <time>2021-09-04T08:42:06.000Z</time>
      </trkpt>
      <trkpt lat="43.369678" lon="-73.695963">
        <ele>159.5</ele>
        <time>2021-09-04T08:42:11.000Z</time>
      </trkpt>
      <trkpt lat="43.368961" lon="-73.695474">
        <ele>152.559993</ele>
        <time>2021-09-04T08:42:20.000Z</time>
      </trkpt>
      <trkpt lat="43.368779" lon="-73.695086">
        <ele>150.619999</ele>
        <time>2021-09-04T08:42:24.000Z</time>
      </trkpt>
      <trkpt lat="43.368617" lon="-73.694285">
        <ele>148.000001</ele>
        <time>2021-09-04T08:42:31.000Z</time>
      </trkpt>
      <trkpt lat="43.3682500023" lon="-73.6935309954">
        <ele>145.129997</ele>
        <time>2021-09-04T08:42:38.000Z</time>
      </trkpt>
      <trkpt lat="43.367881" lon="-73.692794">
        <ele>142.950006</ele>
        <time>2021-09-04T08:42:45.000Z</time>
      </trkpt>
      <trkpt lat="43.3673640039" lon="-73.6918429921">
        <ele>139.539991</ele>
        <time>2021-09-04T08:42:55.000Z</time>
      </trkpt>
      <trkpt lat="43.366859" lon="-73.69091">
        <ele>136.729993</ele>
        <time>2021-09-04T08:43:04.000Z</time>
      </trkpt>
      <trkpt lat="43.3666050049" lon="-73.6898479956">
        <ele>132.209997</ele>
        <time>2021-09-04T08:43:13.000Z</time>
      </trkpt>
      <trkpt lat="43.366352" lon="-73.688806">
        <ele>129.919994</ele>
        <time>2021-09-04T08:43:22.000Z</time>
      </trkpt>
      <trkpt lat="43.3660600046" lon="-73.688062993">
        <ele>128.270006</ele>
        <time>2021-09-04T08:43:29.000Z</time>
      </trkpt>
      <trkpt lat="43.3657720046" lon="-73.687337993">
        <ele>125.830002</ele>
        <time>2021-09-04T08:43:36.000Z</time>
      </trkpt>
      <trkpt lat="43.36548" lon="-73.686611">
        <ele>124.529991</ele>
        <time>2021-09-04T08:43:43.000Z</time>
      </trkpt>
      <trkpt lat="43.365225" lon="-73.686384">
        <ele>124.030009</ele>
        <time>2021-09-04T08:43:46.000Z</time>
      </trkpt>
      <trkpt lat="43.364806" lon="-73.686202">
        <ele>123.930007</ele>
        <time>2021-09-04T08:43:51.000Z</time>
      </trkpt>
      <trkpt lat="43.364535" lon="-73.686162">
        <ele>124.270002</ele>
        <time>2021-09-04T08:43:54.000Z</time>
      </trkpt>
      <trkpt lat="43.364351" lon="-73.686173">
        <ele>123.819993</ele>
        <time>2021-09-04T08:43:56.000Z</time>
      </trkpt>
      <trkpt lat="43.364333" lon="-73.686163">
        <ele>123.799991</ele>
        <time>2021-09-04T08:43:56.000Z</time>
      </trkpt>
      <trkpt lat="43.363643" lon="-73.6861890002">
        <ele>122.940009</ele>
        <time>2021-09-04T08:44:04.000Z</time>
      </trkpt>
      <trkpt lat="43.362952" lon="-73.686203">
        <ele>122.410003</ele>
        <time>2021-09-04T08:44:12.000Z</time>
      </trkpt>
      <trkpt lat="43.3620729999" lon="-73.6861849998">
        <ele>123.219999</ele>
        <time>2021-09-04T08:44:22.000Z</time>
      </trkpt>
      <trkpt lat="43.361197" lon="-73.686165">
        <ele>124.73</ele>
        <time>2021-09-04T08:44:32.000Z</time>
      </trkpt>
      <trkpt lat="43.360523" lon="-73.685909">
        <ele>126.309998</ele>
        <time>2021-09-04T08:44:40.000Z</time>
      </trkpt>
      <trkpt lat="43.360116" lon="-73.685882">
        <ele>126.309998</ele>
        <time>2021-09-04T08:44:45.000Z</time>
      </trkpt>
      <trkpt lat="43.36006" lon="-73.685863">
        <ele>126.310005</ele>
        <time>2021-09-04T08:44:46.000Z</time>
      </trkpt>
      <trkpt lat="43.359996" lon="-73.685879">
        <ele>126.309999</ele>
        <time>2021-09-04T08:44:47.000Z</time>
      </trkpt>
      <trkpt lat="43.359753" lon="-73.685547">
        <ele>125.929994</ele>
        <time>2021-09-04T08:44:51.000Z</time>
      </trkpt>
      <trkpt lat="43.359333" lon="-73.685141">
        <ele>125.299993</ele>
        <time>2021-09-04T08:44:57.000Z</time>
      </trkpt>
      <trkpt lat="43.35898" lon="-73.684874">
        <ele>124.38</ele>
        <time>2021-09-04T08:45:01.000Z</time>
      </trkpt>
      <trkpt lat="43.358756" lon="-73.684769">
        <ele>123.760007</ele>
        <time>2021-09-04T08:45:04.000Z</time>
      </trkpt>
      <trkpt lat="43.358255" lon="-73.684669">
        <ele>123.260003</ele>
        <time>2021-09-04T08:45:10.000Z</time>
      </trkpt>
      <trkpt lat="43.3577590001" lon="-73.6845809994">
        <ele>123.029996</ele>
        <time>2021-09-04T08:45:16.000Z</time>
      </trkpt>
      <trkpt lat="43.357251" lon="-73.684498">
        <ele>122.979995</ele>
        <time>2021-09-04T08:45:22.000Z</time>
      </trkpt>
      <trkpt lat="43.356408" lon="-73.684103">
        <ele>124.620002</ele>
        <time>2021-09-04T08:45:32.000Z</time>
      </trkpt>
      <trkpt lat="43.355942" lon="-73.684187">
        <ele>129.280003</ele>
        <time>2021-09-04T08:45:37.000Z</time>
      </trkpt>
      <trkpt lat="43.355757" lon="-73.684109">
        <ele>130.520001</ele>
        <time>2021-09-04T08:45:39.000Z</time>
      </trkpt>
      <trkpt lat="43.355004" lon="-73.683473">
        <ele>135.389992</ele>
        <time>2021-09-04T08:45:49.000Z</time>
      </trkpt>
      <trkpt lat="43.354637" lon="-73.683288">
        <ele>132.319992</ele>
        <time>2021-09-04T08:45:53.000Z</time>
      </trkpt>
      <trkpt lat="43.354397" lon="-73.68311">
        <ele>131.209995</ele>
        <time>2021-09-04T08:45:56.000Z</time>
      </trkpt>
      <trkpt lat="43.354191" lon="-73.682855">
        <ele>131.170005</ele>
        <time>2021-09-04T08:45:59.000Z</time>
      </trkpt>
      <trkpt lat="43.353968" lon="-73.683124">
        <ele>131.890001</ele>
        <time>2021-09-04T08:46:02.000Z</time>
      </trkpt>
      <trkpt lat="43.353956" lon="-73.68313">
        <ele>131.900007</ele>
        <time>2021-09-04T08:46:02.000Z</time>
      </trkpt>
      <trkpt lat="43.353898" lon="-73.683206">
        <ele>132.029994</ele>
        <time>2021-09-04T08:46:03.000Z</time>
      </trkpt>
      <trkpt lat="43.353585" lon="-73.683256">
        <ele>131.260002</ele>
        <time>2021-09-04T08:46:07.000Z</time>
      </trkpt>
      <trkpt lat="43.353307" lon="-73.683109">
        <ele>129.81</ele>
        <time>2021-09-04T08:46:10.000Z</time>
      </trkpt>
      <trkpt lat="43.352893" lon="-73.682757">
        <ele>129.270004</ele>
        <time>2021-09-04T08:46:15.000Z</time>
      </trkpt>
      <trkpt lat="43.352768" lon="-73.682627">
        <ele>129.419997</ele>
        <time>2021-09-04T08:46:17.000Z</time>
      </trkpt>
      <trkpt lat="43.352439" lon="-73.682158">
        <ele>131.109992</ele>
        <time>2021-09-04T08:46:22.000Z</time>
      </trkpt>
      <trkpt lat="43.352119" lon="-73.681915">
        <ele>133.669994</ele>
        <time>2021-09-04T08:46:26.000Z</time>
      </trkpt>
      <trkpt lat="43.351856" lon="-73.681761">
        <ele>134.360007</ele>
        <time>2021-09-04T08:46:29.000Z</time>
      </trkpt>
      <trkpt lat="43.351495" lon="-73.681502">
        <ele>132.929991</ele>
        <time>2021-09-04T08:46:34.000Z</time>
      </trkpt>
      <trkpt lat="43.351253" lon="-73.680951">
        <ele>131.129997</ele>
        <time>2021-09-04T08:46:39.000Z</time>
      </trkpt>
      <trkpt lat="43.350996" lon="-73.680567">
        <ele>127.940001</ele>
        <time>2021-09-04T08:46:43.000Z</time>
      </trkpt>
      <trkpt lat="43.3507530016" lon="-73.6799489975">
        <ele>123.709996</ele>
        <time>2021-09-04T08:46:49.000Z</time>
      </trkpt>
      <trkpt lat="43.350525" lon="-73.679329">
        <ele>122.880009</ele>
        <time>2021-09-04T08:46:55.000Z</time>
      </trkpt>
      <trkpt lat="43.350572" lon="-73.678958">
        <ele>122.799995</ele>
        <time>2021-09-04T08:46:58.000Z</time>
      </trkpt>
      <trkpt lat="43.350546" lon="-73.678552">
        <ele>123.170008</ele>
        <time>2021-09-04T08:47:01.000Z</time>
      </trkpt>
      <trkpt lat="43.350314" lon="-73.677831">
        <ele>124.929991</ele>
        <time>2021-09-04T08:47:07.000Z</time>
      </trkpt>
      <trkpt lat="43.3499390039" lon="-73.6768929944">
        <ele>129.359999</ele>
        <time>2021-09-04T08:47:16.000Z</time>
      </trkpt>
      <trkpt lat="43.349582" lon="-73.675948">
        <ele>132.859993</ele>
        <time>2021-09-04T08:47:25.000Z</time>
      </trkpt>
      <trkpt lat="43.349508" lon="-73.675589">
        <ele>133.410002</ele>
        <time>2021-09-04T08:47:28.000Z</time>
      </trkpt>
      <trkpt lat="43.349528" lon="-73.675318">
        <ele>133.569994</ele>
        <time>2021-09-04T08:47:30.000Z</time>
      </trkpt>
      <trkpt lat="43.349555" lon="-73.675136">
        <ele>133.609996</ele>
        <time>2021-09-04T08:47:32.000Z</time>
      </trkpt>
      <trkpt lat="43.349664" lon="-73.674925">
        <ele>133.440004</ele>
        <time>2021-09-04T08:47:34.000Z</time>
      </trkpt>
      <trkpt lat="43.3501020016" lon="-73.6742920047">
        <ele>130.269992</ele>
        <time>2021-09-04T08:47:41.000Z</time>
      </trkpt>
      <trkpt lat="43.350528" lon="-73.673661">
        <ele>128.460003</ele>
        <time>2021-09-04T08:47:48.000Z</time>
      </trkpt>
      <trkpt lat="43.350742" lon="-73.673257">
        <ele>128.400006</ele>
        <time>2021-09-04T08:47:52.000Z</time>
      </trkpt>
      <trkpt lat="43.351037" lon="-73.672644">
        <ele>129.330008</ele>
        <time>2021-09-04T08:47:58.000Z</time>
      </trkpt>
      <trkpt lat="43.351294" lon="-73.671977">
        <ele>130.129996</ele>
        <time>2021-09-04T08:48:04.000Z</time>
      </trkpt>
      <trkpt lat="43.351399" lon="-73.671653">
        <ele>130.279995</ele>
        <time>2021-09-04T08:48:07.000Z</time>
      </trkpt>
      <trkpt lat="43.351613" lon="-73.670678">
        <ele>130.229996</ele>
        <time>2021-09-04T08:48:15.000Z</time>
      </trkpt>
      <trkpt lat="43.351718" lon="-73.669672">
        <ele>130.060007</ele>
        <time>2021-09-04T08:48:23.000Z</time>
      </trkpt>
      <trkpt lat="43.351753" lon="-73.668758">
        <ele>130.129998</ele>
        <time>2021-09-04T08:48:30.000Z</time>
      </trkpt>
      <trkpt lat="43.35173" lon="-73.668062">
        <ele>129.880009</ele>
        <time>2021-09-04T08:48:36.000Z</time>
      </trkpt>
      <trkpt lat="43.351745" lon="-73.667654">
        <ele>129.819996</ele>
        <time>2021-09-04T08:48:39.000Z</time>
      </trkpt>
      <trkpt lat="43.351821" lon="-73.667261">
        <ele>129.709998</ele>
        <time>2021-09-04T08:48:42.000Z</time>
      </trkpt>
      <trkpt lat="43.351952" lon="-73.666944">
        <ele>129.610003</ele>
        <time>2021-09-04T08:48:45.000Z</time>
      </trkpt>
      <trkpt lat="43.351942" lon="-73.666956">
        <ele>129.609992</ele>
        <time>2021-09-04T08:48:45.000Z</time>
      </trkpt>
      <trkpt lat="43.352184" lon="-73.666544">
        <ele>129.499999</ele>
        <time>2021-09-04T08:48:49.000Z</time>
      </trkpt>
      <trkpt lat="43.352346" lon="-73.666368">
        <ele>129.500003</ele>
        <time>2021-09-04T08:48:51.000Z</time>
      </trkpt>
      <trkpt lat="43.352543" lon="-73.666187">
        <ele>129.390007</ele>
        <time>2021-09-04T08:48:54.000Z</time>
      </trkpt>
      <trkpt lat="43.352776" lon="-73.666008">
        <ele>129.560009</ele>
        <time>2021-09-04T08:48:57.000Z</time>
      </trkpt>
      <trkpt lat="43.3534570004" lon="-73.6656790038">
        <ele>129.250009</ele>
        <time>2021-09-04T08:49:05.000Z</time>
      </trkpt>
      <trkpt lat="43.354136" lon="-73.665347">
        <ele>128.839991</ele>
        <time>2021-09-04T08:49:13.000Z</time>
      </trkpt>
      <trkpt lat="43.354338" lon="-73.665207">
        <ele>128.119997</ele>
        <time>2021-09-04T08:49:16.000Z</time>
      </trkpt>
      <trkpt lat="43.3549080005" lon="-73.6649150027">
        <ele>126.870007</ele>
        <time>2021-09-04T08:49:23.000Z</time>
      </trkpt>
      <trkpt lat="43.355499" lon="-73.664628">
        <ele>125.999999</ele>
        <time>2021-09-04T08:49:30.000Z</time>
      </trkpt>
      <trkpt lat="43.356238" lon="-73.664206">
        <ele>123.389996</ele>
        <time>2021-09-04T08:49:39.000Z</time>
      </trkpt>
      <trkpt lat="43.3567940016" lon="-73.663788008">
        <ele>121.160008</ele>
        <time>2021-09-04T08:49:46.000Z</time>
      </trkpt>
      <trkpt lat="43.3573490016" lon="-73.663347008">
        <ele>118.810008</ele>
        <time>2021-09-04T08:49:53.000Z</time>
      </trkpt>
      <trkpt lat="43.357914" lon="-73.662916">
        <ele>115.22</ele>
        <time>2021-09-04T08:50:00.000Z</time>
      </trkpt>
      <trkpt lat="43.358198" lon="-73.662642">
        <ele>114.219998</ele>
        <time>2021-09-04T08:50:04.000Z</time>
      </trkpt>
      <trkpt lat="43.358487" lon="-73.662345">
        <ele>113.840007</ele>
        <time>2021-09-04T08:50:08.000Z</time>
      </trkpt>
      <trkpt lat="43.358623" lon="-73.662114">
        <ele>114.280002</ele>
        <time>2021-09-04T08:50:10.000Z</time>
      </trkpt>
      <trkpt lat="43.358694" lon="-73.661919">
        <ele>114.889999</ele>
        <time>2021-09-04T08:50:12.000Z</time>
      </trkpt>
      <trkpt lat="43.358794" lon="-73.661676">
        <ele>115.469995</ele>
        <time>2021-09-04T08:50:14.000Z</time>
      </trkpt>
      <trkpt lat="43.358867" lon="-73.661365">
        <ele>116.129999</ele>
        <time>2021-09-04T08:50:17.000Z</time>
      </trkpt>
      <trkpt lat="43.358875" lon="-73.661115">
        <ele>116.309991</ele>
        <time>2021-09-04T08:50:19.000Z</time>
      </trkpt>
      <trkpt lat="43.358897" lon="-73.660744">
        <ele>116.789993</ele>
        <time>2021-09-04T08:50:22.000Z</time>
      </trkpt>
      <trkpt lat="43.3588150087" lon="-73.6597349977">
        <ele>117.380008</ele>
        <time>2021-09-04T08:50:30.000Z</time>
      </trkpt>
      <trkpt lat="43.3587530087" lon="-73.6587339976">
        <ele>117.050006</ele>
        <time>2021-09-04T08:50:38.000Z</time>
      </trkpt>
      <trkpt lat="43.358686" lon="-73.657739">
        <ele>117.119998</ele>
        <time>2021-09-04T08:50:46.000Z</time>
      </trkpt>
      <trkpt lat="43.358659" lon="-73.657581">
        <ele>117.040008</ele>
        <time>2021-09-04T08:50:47.000Z</time>
      </trkpt>
      <trkpt lat="43.358482004" lon="-73.6566229974">
        <ele>115.589998</ele>
        <time>2021-09-04T08:50:55.000Z</time>
      </trkpt>
      <trkpt lat="43.358318" lon="-73.655666">
        <ele>112.799998</ele>
        <time>2021-09-04T08:51:03.000Z</time>
      </trkpt>
      <trkpt lat="43.3581750026" lon="-73.6548829981">
        <ele>109.889992</ele>
        <time>2021-09-04T08:51:10.000Z</time>
      </trkpt>
      <trkpt lat="43.358033" lon="-73.654107">
        <ele>106.92</ele>
        <time>2021-09-04T08:51:16.000Z</time>
      </trkpt>
      <trkpt lat="43.3578710015" lon="-73.6535159987">
        <ele>105.860004</ele>
        <time>2021-09-04T08:51:21.000Z</time>
      </trkpt>
      <trkpt lat="43.357719" lon="-73.652931">
        <ele>104.129991</ele>
        <time>2021-09-04T08:51:26.000Z</time>
      </trkpt>
      <trkpt lat="43.3573690046" lon="-73.651899994">
        <ele>103.03</ele>
        <time>2021-09-04T08:51:35.000Z</time>
      </trkpt>
      <trkpt lat="43.357013" lon="-73.650877">
        <ele>101.130006</ele>
        <time>2021-09-04T08:51:44.000Z</time>
      </trkpt>
      <trkpt lat="43.356935" lon="-73.650618">
        <ele>100.309991</ele>
        <time>2021-09-04T08:51:46.000Z</time>
      </trkpt>
      <trkpt lat="43.356856" lon="-73.650115">
        <ele>99.849991</ele>
        <time>2021-09-04T08:51:50.000Z</time>
      </trkpt>
      <trkpt lat="43.3567170046" lon="-73.6490989979">
        <ele>102.090007</ele>
        <time>2021-09-04T08:51:58.000Z</time>
      </trkpt>
      <trkpt lat="43.356587" lon="-73.648073">
        <ele>108.14</ele>
        <time>2021-09-04T08:52:06.000Z</time>
      </trkpt>
      <trkpt lat="43.356569" lon="-73.647433">
        <ele>108.899993</ele>
        <time>2021-09-04T08:52:11.000Z</time>
      </trkpt>
      <trkpt lat="43.3565760197" lon="-73.6463640008">
        <ele>106.830001</ele>
        <time>2021-09-04T08:52:20.000Z</time>
      </trkpt>
      <trkpt lat="43.3565920296" lon="-73.6452990012">
        <ele>104.520003</ele>
        <time>2021-09-04T08:52:29.000Z</time>
      </trkpt>
      <trkpt lat="43.3566050296" lon="-73.6442300012">
        <ele>103.190008</ele>
        <time>2021-09-04T08:52:38.000Z</time>
      </trkpt>
      <trkpt lat="43.3566000197" lon="-73.6431810008">
        <ele>104.649999</ele>
        <time>2021-09-04T08:52:46.000Z</time>
      </trkpt>
      <trkpt lat="43.356626" lon="-73.642117">
        <ele>106.740005</ele>
        <time>2021-09-04T08:52:55.000Z</time>
      </trkpt>
      <trkpt lat="43.3566650032" lon="-73.6412510004">
        <ele>107.249996</ele>
        <time>2021-09-04T08:53:02.000Z</time>
      </trkpt>
      <trkpt lat="43.356699" lon="-73.640394">
        <ele>107.659991</ele>
        <time>2021-09-04T08:53:09.000Z</time>
      </trkpt>
      <trkpt lat="43.356743" lon="-73.639607">
        <ele>107.25</ele>
        <time>2021-09-04T08:53:15.000Z</time>
      </trkpt>
      <trkpt lat="43.3568893408" lon="-73.6386746707">
        <ele>106.250008</ele>
        <time>2021-09-04T08:53:23.000Z</time>
      </trkpt>
      <trkpt lat="43.3570136741" lon="-73.6377463373">
        <ele>105.250007</ele>
        <time>2021-09-04T08:53:31.000Z</time>
      </trkpt>
      <trkpt lat="43.357147" lon="-73.636827">
        <ele>105.839999</ele>
        <time>2021-09-04T08:53:39.000Z</time>
      </trkpt>
      <trkpt lat="43.357243" lon="-73.636234">
        <ele>106.750004</ele>
        <time>2021-09-04T08:53:44.000Z</time>
      </trkpt>
      <trkpt lat="43.357349" lon="-73.635249">
        <ele>108.630003</ele>
        <time>2021-09-04T08:53:52.000Z</time>
      </trkpt>
      <trkpt lat="43.357446" lon="-73.634105">
        <ele>108.549997</ele>
        <time>2021-09-04T08:54:01.000Z</time>
      </trkpt>
      <trkpt lat="43.357427" lon="-73.633961">
        <ele>108.180009</ele>
        <time>2021-09-04T08:54:02.000Z</time>
      </trkpt>
      <trkpt lat="43.3575940052" lon="-73.6328720031">
        <ele>107.490005</ele>
        <time>2021-09-04T08:54:11.000Z</time>
      </trkpt>
      <trkpt lat="43.357762" lon="-73.631777">
        <ele>106.490001</ele>
        <time>2021-09-04T08:54:20.000Z</time>
      </trkpt>
      <trkpt lat="43.357911" lon="-73.63099">
        <ele>105.089997</ele>
        <time>2021-09-04T08:54:27.000Z</time>
      </trkpt>
      <trkpt lat="43.358087" lon="-73.631013">
        <ele>104.81</ele>
        <time>2021-09-04T08:54:29.000Z</time>
      </trkpt>
      <trkpt lat="43.358082" lon="-73.631023">
        <ele>104.810007</ele>
        <time>2021-09-04T08:54:29.000Z</time>
      </trkpt>
      <trkpt lat="43.3587409999" lon="-73.6311189989">
        <ele>105.769996</ele>
        <time>2021-09-04T08:54:36.000Z</time>
      </trkpt>
      <trkpt lat="43.359384" lon="-73.631235">
        <ele>106.740001</ele>
        <time>2021-09-04T08:54:43.000Z</time>
      </trkpt>
      <trkpt lat="43.360075" lon="-73.631389">
        <ele>108.189992</ele>
        <time>2021-09-04T08:54:51.000Z</time>
      </trkpt>
      <trkpt lat="43.3608891433" lon="-73.6315202758">
        <ele>112.240002</ele>
        <time>2021-09-04T08:55:00.000Z</time>
      </trkpt>
      <trkpt lat="43.3616852864" lon="-73.6316305549">
        <ele>118.729994</ele>
        <time>2021-09-04T08:55:09.000Z</time>
      </trkpt>
      <trkpt lat="43.3624934294" lon="-73.6317568373">
        <ele>119.769999</ele>
        <time>2021-09-04T08:55:18.000Z</time>
      </trkpt>
      <trkpt lat="43.3633015723" lon="-73.631887123">
        <ele>113.980009</ele>
        <time>2021-09-04T08:55:27.000Z</time>
      </trkpt>
      <trkpt lat="43.364124715" lon="-73.632011412">
        <ele>110.559991</ele>
        <time>2021-09-04T08:55:36.000Z</time>
      </trkpt>
      <trkpt lat="43.3649228576" lon="-73.6321287044">
        <ele>107.97</ele>
        <time>2021-09-04T08:55:45.000Z</time>
      </trkpt>
      <trkpt lat="43.365728" lon="-73.632261">
        <ele>107.870006</ele>
        <time>2021-09-04T08:55:54.000Z</time>
      </trkpt>
      <trkpt lat="43.3665950001" lon="-73.6323956628">
        <ele>106.689999</ele>
        <time>2021-09-04T08:56:04.000Z</time>
      </trkpt>
      <trkpt lat="43.367456" lon="-73.6325423294">
        <ele>109.410002</ele>
        <time>2021-09-04T08:56:14.000Z</time>
      </trkpt>
      <trkpt lat="43.368302" lon="-73.632663">
        <ele>108.319996</ele>
        <time>2021-09-04T08:56:23.000Z</time>
      </trkpt>
      <trkpt lat="43.368543" lon="-73.632799">
        <ele>108.189996</ele>
        <time>2021-09-04T08:56:26.000Z</time>
      </trkpt>
      <trkpt lat="43.368978" lon="-73.633272">
        <ele>109.680007</ele>
        <time>2021-09-04T08:56:32.000Z</time>
      </trkpt>
      <trkpt lat="43.369463" lon="-73.633695">
        <ele>110.769994</ele>
        <time>2021-09-04T08:56:38.000Z</time>
      </trkpt>
      <trkpt lat="43.370046" lon="-73.634396">
        <ele>111.050002</ele>
        <time>2021-09-04T08:56:47.000Z</time>
      </trkpt>
      <trkpt lat="43.370558" lon="-73.634935">
        <ele>112.299996</ele>
        <time>2021-09-04T08:56:54.000Z</time>
      </trkpt>
      <trkpt lat="43.371045" lon="-73.635401">
        <ele>112.250008</ele>
        <time>2021-09-04T08:57:01.000Z</time>
      </trkpt>
      <trkpt lat="43.371479" lon="-73.635925">
        <ele>111.989992</ele>
        <time>2021-09-04T08:57:07.000Z</time>
      </trkpt>
      <trkpt lat="43.371878" lon="-73.636312">
        <ele>113.389992</ele>
        <time>2021-09-04T08:57:12.000Z</time>
      </trkpt>
      <trkpt lat="43.372434" lon="-73.636716">
        <ele>113.290005</ele>
        <time>2021-09-04T08:57:19.000Z</time>
      </trkpt>
      <trkpt lat="43.372698" lon="-73.636768">
        <ele>113.180003</ele>
        <time>2021-09-04T08:57:22.000Z</time>
      </trkpt>
      <trkpt lat="43.373208" lon="-73.637233">
        <ele>112.149991</ele>
        <time>2021-09-04T08:57:29.000Z</time>
      </trkpt>
      <trkpt lat="43.373205" lon="-73.637256">
        <ele>112.129997</ele>
        <time>2021-09-04T08:57:29.000Z</time>
      </trkpt>
      <trkpt lat="43.3734910013" lon="-73.6367070026">
        <ele>112.619991</ele>
        <time>2021-09-04T08:57:34.000Z</time>
      </trkpt>
      <trkpt lat="43.373759" lon="-73.636157">
        <ele>114.410001</ele>
        <time>2021-09-04T08:57:39.000Z</time>
      </trkpt>
      <trkpt lat="43.373986" lon="-73.635781">
        <ele>116.669996</ele>
        <time>2021-09-04T08:57:43.000Z</time>
      </trkpt>
      <trkpt lat="43.374146" lon="-73.635659">
        <ele>117.389997</ele>
        <time>2021-09-04T08:57:45.000Z</time>
      </trkpt>
      <trkpt lat="43.374619" lon="-73.6353">
        <ele>117.949998</ele>
        <time>2021-09-04T08:57:51.000Z</time>
      </trkpt>
      <trkpt lat="43.374738" lon="-73.635152">
        <ele>117.950006</ele>
        <time>2021-09-04T08:57:53.000Z</time>
      </trkpt>
      <trkpt lat="43.374809" lon="-73.634992">
        <ele>117.949996</ele>
        <time>2021-09-04T08:57:55.000Z</time>
      </trkpt>
      <trkpt lat="43.374868" lon="-73.634766">
        <ele>117.950006</ele>
        <time>2021-09-04T08:57:57.000Z</time>
      </trkpt>
      <trkpt lat="43.374913" lon="-73.634392">
        <ele>117.610006</ele>
        <time>2021-09-04T08:58:00.000Z</time>
      </trkpt>
      <trkpt lat="43.3750330212" lon="-73.6332920083">
        <ele>117.209997</ele>
        <time>2021-09-04T08:58:09.000Z</time>
      </trkpt>
      <trkpt lat="43.3751520319" lon="-73.6321870125">
        <ele>117.13</ele>
        <time>2021-09-04T08:58:18.000Z</time>
      </trkpt>
      <trkpt lat="43.3752640319" lon="-73.6310910125">
        <ele>117.039993</ele>
        <time>2021-09-04T08:58:27.000Z</time>
      </trkpt>
      <trkpt lat="43.3753780212" lon="-73.6299930083">
        <ele>115.919991</ele>
        <time>2021-09-04T08:58:36.000Z</time>
      </trkpt>
      <trkpt lat="43.375485" lon="-73.628876">
        <ele>116.139996</ele>
        <time>2021-09-04T08:58:45.000Z</time>
      </trkpt>
      <trkpt lat="43.3756165137" lon="-73.6278570068">
        <ele>115.989996</ele>
        <time>2021-09-04T08:58:53.000Z</time>
      </trkpt>
      <trkpt lat="43.3757500183" lon="-73.626834009">
        <ele>115.150003</ele>
        <time>2021-09-04T08:59:01.000Z</time>
      </trkpt>
      <trkpt lat="43.3758895137" lon="-73.6258130069">
        <ele>113.449999</ele>
        <time>2021-09-04T08:59:09.000Z</time>
      </trkpt>
      <trkpt lat="43.376022" lon="-73.624778">
        <ele>112.119997</ele>
        <time>2021-09-04T08:59:17.000Z</time>
      </trkpt>
      <trkpt lat="43.3761605195" lon="-73.6235600086">
        <ele>111.189996</ele>
        <time>2021-09-04T08:59:27.000Z</time>
      </trkpt>
      <trkpt lat="43.3762970259" lon="-73.6223320114">
        <ele>110.949999</ele>
        <time>2021-09-04T08:59:37.000Z</time>
      </trkpt>
      <trkpt lat="43.3764475195" lon="-73.6211280085">
        <ele>109.760003</ele>
        <time>2021-09-04T08:59:47.000Z</time>
      </trkpt>
      <trkpt lat="43.376593" lon="-73.6199">
        <ele>104.829991</ele>
        <time>2021-09-04T08:59:57.000Z</time>
      </trkpt>
      <trkpt lat="43.3766790067" lon="-73.6190210026">
        <ele>100.569999</ele>
        <time>2021-09-04T09:00:04.000Z</time>
      </trkpt>
      <trkpt lat="43.3767700068" lon="-73.6181350026">
        <ele>99.049995</ele>
        <time>2021-09-04T09:00:11.000Z</time>
      </trkpt>
      <trkpt lat="43.376865" lon="-73.617264">
        <ele>95.879998</ele>
        <time>2021-09-04T09:00:18.000Z</time>
      </trkpt>
      <trkpt lat="43.3769130036" lon="-73.6163370009">
        <ele>92.589994</ele>
        <time>2021-09-04T09:00:26.000Z</time>
      </trkpt>
      <trkpt lat="43.376962" lon="-73.615436">
        <ele>89.05</ele>
        <time>2021-09-04T09:00:33.000Z</time>
      </trkpt>
      <trkpt lat="43.377007" lon="-73.615159">
        <ele>88.380009</ele>
        <time>2021-09-04T09:00:35.000Z</time>
      </trkpt>
      <trkpt lat="43.377137" lon="-73.614626">
        <ele>89.049992</ele>
        <time>2021-09-04T09:00:40.000Z</time>
      </trkpt>
      <trkpt lat="43.377327" lon="-73.613646">
        <ele>94.950005</ele>
        <time>2021-09-04T09:00:48.000Z</time>
      </trkpt>
      <trkpt lat="43.377412" lon="-73.613753">
        <ele>95.120001</ele>
        <time>2021-09-04T09:00:49.000Z</time>
      </trkpt>
      <trkpt lat="43.3777840007" lon="-73.6141639976">
        <ele>96.119995</ele>
        <time>2021-09-04T09:00:54.000Z</time>
      </trkpt>
      <trkpt lat="43.37813" lon="-73.614567">
        <ele>96.200006</ele>
        <time>2021-09-04T09:00:59.000Z</time>
      </trkpt>
      <trkpt lat="43.378768" lon="-73.615202">
        <ele>96.370008</ele>
        <time>2021-09-04T09:01:08.000Z</time>
      </trkpt>
      <trkpt lat="43.378937" lon="-73.615385">
        <ele>95.620005</ele>
        <time>2021-09-04T09:01:10.000Z</time>
      </trkpt>
      <trkpt lat="43.379021" lon="-73.615592">
        <ele>94.519999</ele>
        <time>2021-09-04T09:01:12.000Z</time>
      </trkpt>
      <trkpt lat="43.379117" lon="-73.615878">
        <ele>93.579996</ele>
        <time>2021-09-04T09:01:15.000Z</time>
      </trkpt>
      <trkpt lat="43.379147" lon="-73.616127">
        <ele>93.160001</ele>
        <time>2021-09-04T09:01:17.000Z</time>
      </trkpt>
      <trkpt lat="43.37914" lon="-73.616451">
        <ele>92.689994</ele>
        <time>2021-09-04T09:01:20.000Z</time>
      </trkpt>
      <trkpt lat="43.379015" lon="-73.617512">
        <ele>94.07</ele>
        <time>2021-09-04T09:01:29.000Z</time>
      </trkpt>
      <trkpt lat="43.378995" lon="-73.617802">
        <ele>94.340003</ele>
        <time>2021-09-04T09:01:31.000Z</time>
      </trkpt>
      <trkpt lat="43.379025" lon="-73.61806">
        <ele>94.919999</ele>
        <time>2021-09-04T09:01:33.000Z</time>
      </trkpt>
      <trkpt lat="43.379126" lon="-73.618323">
        <ele>95.070002</ele>
        <time>2021-09-04T09:01:35.000Z</time>
      </trkpt>
      <trkpt lat="43.379763" lon="-73.61891">
        <ele>96.220006</ele>
        <time>2021-09-04T09:01:44.000Z</time>
      </trkpt>
      <trkpt lat="43.380117" lon="-73.619237">
        <ele>97.329998</ele>
        <time>2021-09-04T09:01:49.000Z</time>
      </trkpt>
      <trkpt lat="43.380408" lon="-73.619458">
        <ele>97.679993</ele>
        <time>2021-09-04T09:01:53.000Z</time>
      </trkpt>
      <trkpt lat="43.380692" lon="-73.619632">
        <ele>97.969992</ele>
        <time>2021-09-04T09:01:56.000Z</time>
      </trkpt>
      <trkpt lat="43.381368" lon="-73.619818">
        <ele>100.120005</ele>
        <time>2021-09-04T09:02:04.000Z</time>
      </trkpt>
      <trkpt lat="43.3820640002" lon="-73.6199189989">
        <ele>103.599999</ele>
        <time>2021-09-04T09:02:12.000Z</time>
      </trkpt>
      <trkpt lat="43.382741" lon="-73.620022">
        <ele>106.060005</ele>
        <time>2021-09-04T09:02:20.000Z</time>
      </trkpt>
      <trkpt lat="43.3832490001" lon="-73.6201179992">
        <ele>106.140009</ele>
        <time>2021-09-04T09:02:26.000Z</time>
      </trkpt>
      <trkpt lat="43.383742" lon="-73.620216">
        <ele>105.669993</ele>
        <time>2021-09-04T09:02:32.000Z</time>
      </trkpt>
      <trkpt lat="43.3842559999" lon="-73.6203139992">
        <ele>105.549993</ele>
        <time>2021-09-04T09:02:38.000Z</time>
      </trkpt>
      <trkpt lat="43.384757" lon="-73.620396">
        <ele>106.230008</ele>
        <time>2021-09-04T09:02:44.000Z</time>
      </trkpt>
      <trkpt lat="43.3852570001" lon="-73.6205109991">
        <ele>107.689996</ele>
        <time>2021-09-04T09:02:50.000Z</time>
      </trkpt>
      <trkpt lat="43.385774" lon="-73.620618">
        <ele>109.810001</ele>
        <time>2021-09-04T09:02:56.000Z</time>
      </trkpt>
      <trkpt lat="43.385972" lon="-73.620717">
        <ele>110.870001</ele>
        <time>2021-09-04T09:02:58.000Z</time>
      </trkpt>
      <trkpt lat="43.38635" lon="-73.620973">
        <ele>114.279991</ele>
        <time>2021-09-04T09:03:03.000Z</time>
      </trkpt>
      <trkpt lat="43.38711067" lon="-73.6215893178">
        <ele>121.029996</ele>
        <time>2021-09-04T09:03:13.000Z</time>
      </trkpt>
      <trkpt lat="43.3878853366" lon="-73.6221996512">
        <ele>129.010005</ele>
        <time>2021-09-04T09:03:23.000Z</time>
      </trkpt>
      <trkpt lat="43.388645" lon="-73.622804">
        <ele>135.719994</ele>
        <time>2021-09-04T09:03:33.000Z</time>
      </trkpt>
      <trkpt lat="43.389415" lon="-73.623349">
        <ele>142.370003</ele>
        <time>2021-09-04T09:03:43.000Z</time>
      </trkpt>
      <trkpt lat="43.3898160004" lon="-73.6236209983">
        <ele>144.110007</ele>
        <time>2021-09-04T09:03:48.000Z</time>
      </trkpt>
      <trkpt lat="43.390232" lon="-73.623873">
        <ele>145.139996</ele>
        <time>2021-09-04T09:03:53.000Z</time>
      </trkpt>
      <trkpt lat="43.3907320003" lon="-73.6240849984">
        <ele>146.51</ele>
        <time>2021-09-04T09:03:59.000Z</time>
      </trkpt>
      <trkpt lat="43.391225" lon="-73.624275">
        <ele>147.219991</ele>
        <time>2021-09-04T09:04:05.000Z</time>
      </trkpt>
      <trkpt lat="43.391276" lon="-73.624211">
        <ele>147.129998</ele>
        <time>2021-09-04T09:04:06.000Z</time>
      </trkpt>
      <trkpt lat="43.391206" lon="-73.624293">
        <ele>147.219994</ele>
        <time>2021-09-04T09:04:07.000Z</time>
      </trkpt>
      <trkpt lat="43.391582" lon="-73.623846">
        <ele>146.529992</ele>
        <time>2021-09-04T09:04:13.000Z</time>
      </trkpt>
      <trkpt lat="43.392035" lon="-73.623423">
        <ele>145.260002</ele>
        <time>2021-09-04T09:04:19.000Z</time>
      </trkpt>
      <trkpt lat="43.39235" lon="-73.623211">
        <ele>143.400002</ele>
        <time>2021-09-04T09:04:23.000Z</time>
      </trkpt>
      <trkpt lat="43.392617" lon="-73.623086">
        <ele>141.399997</ele>
        <time>2021-09-04T09:04:26.000Z</time>
      </trkpt>
      <trkpt lat="43.39344" lon="-73.622851">
        <ele>137.369994</ele>
        <time>2021-09-04T09:04:35.000Z</time>
      </trkpt>
      <trkpt lat="43.393896" lon="-73.6227620006">
        <ele>133.209997</ele>
        <time>2021-09-04T09:04:40.000Z</time>
      </trkpt>
      <trkpt lat="43.394343" lon="-73.622677">
        <ele>128.939993</ele>
        <time>2021-09-04T09:04:45.000Z</time>
      </trkpt>
      <trkpt lat="43.394852" lon="-73.622627">
        <ele>125.470005</ele>
        <time>2021-09-04T09:04:51.000Z</time>
      </trkpt>
      <trkpt lat="43.395443" lon="-73.622701">
        <ele>122.860002</ele>
        <time>2021-09-04T09:04:58.000Z</time>
      </trkpt>
      <trkpt lat="43.3961096669" lon="-73.6228513302">
        <ele>121.770001</ele>
        <time>2021-09-04T09:05:06.000Z</time>
      </trkpt>
      <trkpt lat="43.3967843336" lon="-73.6229896635">
        <ele>123.319992</ele>
        <time>2021-09-04T09:05:14.000Z</time>
      </trkpt>
      <trkpt lat="43.397451" lon="-73.623131">
        <ele>127.060004</ele>
        <time>2021-09-04T09:05:22.000Z</time>
      </trkpt>
      <trkpt lat="43.3981960002" lon="-73.6232589944">
        <ele>127.600008</ele>
        <time>2021-09-04T09:05:30.000Z</time>
      </trkpt>
      <trkpt lat="43.3989550003" lon="-73.6233589916">
        <ele>127.590009</ele>
        <time>2021-09-04T09:05:38.000Z</time>
      </trkpt>
      <trkpt lat="43.3997120004" lon="-73.6234759916">
        <ele>127.990005</ele>
        <time>2021-09-04T09:05:46.000Z</time>
      </trkpt>
      <trkpt lat="43.4004710003" lon="-73.6235869944">
        <ele>126.650008</ele>
        <time>2021-09-04T09:05:54.000Z</time>
      </trkpt>
      <trkpt lat="43.401221" lon="-73.623695">
        <ele>128.509991</ele>
        <time>2021-09-04T09:06:02.000Z</time>
      </trkpt>
      <trkpt lat="43.4017169999" lon="-73.6237959992">
        <ele>128.589998</ele>
        <time>2021-09-04T09:06:08.000Z</time>
      </trkpt>
      <trkpt lat="43.402216" lon="-73.623892">
        <ele>128.350001</ele>
        <time>2021-09-04T09:06:14.000Z</time>
      </trkpt>
      <trkpt lat="43.4027159998" lon="-73.6239779993">
        <ele>129.010003</ele>
        <time>2021-09-04T09:06:20.000Z</time>
      </trkpt>
      <trkpt lat="43.403221" lon="-73.624064">
        <ele>129.729992</ele>
        <time>2021-09-04T09:06:26.000Z</time>
      </trkpt>
      <trkpt lat="43.4038740001" lon="-73.6241239992">
        <ele>131.470005</ele>
        <time>2021-09-04T09:06:33.000Z</time>
      </trkpt>
      <trkpt lat="43.404535" lon="-73.624209">
        <ele>132.799993</ele>
        <time>2021-09-04T09:06:40.000Z</time>
      </trkpt>
      <trkpt lat="43.4052250001" lon="-73.6243039967">
        <ele>133.960004</ele>
        <time>2021-09-04T09:06:48.000Z</time>
      </trkpt>
      <trkpt lat="43.4059360001" lon="-73.6243899956">
        <ele>135.190002</ele>
        <time>2021-09-04T09:06:56.000Z</time>
      </trkpt>
      <trkpt lat="43.406622" lon="-73.6244819967">
        <ele>135.900004</ele>
        <time>2021-09-04T09:07:04.000Z</time>
      </trkpt>
      <trkpt lat="43.407322" lon="-73.624582">
        <ele>135.629993</ele>
        <time>2021-09-04T09:07:12.000Z</time>
      </trkpt>
      <trkpt lat="43.4079609999" lon="-73.6246459993">
        <ele>134.430002</ele>
        <time>2021-09-04T09:07:19.000Z</time>
      </trkpt>
      <trkpt lat="43.408588" lon="-73.624714">
        <ele>132.670003</ele>
        <time>2021-09-04T09:07:26.000Z</time>
      </trkpt>
      <trkpt lat="43.4092286668" lon="-73.6248136646">
        <ele>130.070004</ele>
        <time>2021-09-04T09:07:33.000Z</time>
      </trkpt>
      <trkpt lat="43.4098733335" lon="-73.6249213313">
        <ele>126.000007</ele>
        <time>2021-09-04T09:07:40.000Z</time>
      </trkpt>
      <trkpt lat="43.410523" lon="-73.625017">
        <ele>121.910003</ele>
        <time>2021-09-04T09:07:47.000Z</time>
      </trkpt>
      <trkpt lat="43.4112273335" lon="-73.6251466635">
        <ele>117.529994</ele>
        <time>2021-09-04T09:07:55.000Z</time>
      </trkpt>
      <trkpt lat="43.4119356668" lon="-73.6252913302">
        <ele>113.979994</ele>
        <time>2021-09-04T09:08:03.000Z</time>
      </trkpt>
      <trkpt lat="43.412629" lon="-73.625426">
        <ele>110.750005</ele>
        <time>2021-09-04T09:08:11.000Z</time>
      </trkpt>
      <trkpt lat="43.4134440004" lon="-73.6255909934">
        <ele>107.120007</ele>
        <time>2021-09-04T09:08:20.000Z</time>
      </trkpt>
      <trkpt lat="43.4142580005" lon="-73.6257529912">
        <ele>105.629995</ele>
        <time>2021-09-04T09:08:29.000Z</time>
      </trkpt>
      <trkpt lat="43.4150520004" lon="-73.6259219934">
        <ele>105.369991</ele>
        <time>2021-09-04T09:08:38.000Z</time>
      </trkpt>
      <trkpt lat="43.415879" lon="-73.626075">
        <ele>106.669994</ele>
        <time>2021-09-04T09:08:47.000Z</time>
      </trkpt>
      <trkpt lat="43.416438" lon="-73.626175">
        <ele>109.329999</ele>
        <time>2021-09-04T09:08:53.000Z</time>
      </trkpt>
      <trkpt lat="43.417315" lon="-73.626312">
        <ele>110.549992</ele>
        <time>2021-09-04T09:09:03.000Z</time>
      </trkpt>
      <trkpt lat="43.4180280002" lon="-73.6264399959">
        <ele>110.900008</ele>
        <time>2021-09-04T09:09:11.000Z</time>
      </trkpt>
      <trkpt lat="43.4187590003" lon="-73.6265479945">
        <ele>109.009994</ele>
        <time>2021-09-04T09:09:19.000Z</time>
      </trkpt>
      <trkpt lat="43.4194800002" lon="-73.6266599959">
        <ele>110.259991</ele>
        <time>2021-09-04T09:09:27.000Z</time>
      </trkpt>
      <trkpt lat="43.420205" lon="-73.626786">
        <ele>111.779992</ele>
        <time>2021-09-04T09:09:35.000Z</time>
      </trkpt>
      <trkpt lat="43.4210810001" lon="-73.6269249979">
        <ele>111.459993</ele>
        <time>2021-09-04T09:09:45.000Z</time>
      </trkpt>
      <trkpt lat="43.421958" lon="-73.627077">
        <ele>110.679996</ele>
        <time>2021-09-04T09:09:55.000Z</time>
      </trkpt>
      <trkpt lat="43.422613" lon="-73.626982">
        <ele>110.029998</ele>
        <time>2021-09-04T09:10:02.000Z</time>
      </trkpt>
      <trkpt lat="43.423353" lon="-73.626674">
        <ele>109.140004</ele>
        <time>2021-09-04T09:10:11.000Z</time>
      </trkpt>
      <trkpt lat="43.423921" lon="-73.626229">
        <ele>109.949994</ele>
        <time>2021-09-04T09:10:18.000Z</time>
      </trkpt>
      <trkpt lat="43.424517" lon="-73.625491">
        <ele>113.259993</ele>
        <time>2021-09-04T09:10:27.000Z</time>
      </trkpt>
      <trkpt lat="43.4250240007" lon="-73.6250920035">
        <ele>116.479993</ele>
        <time>2021-09-04T09:10:34.000Z</time>
      </trkpt>
      <trkpt lat="43.425551" lon="-73.624672">
        <ele>119.369992</ele>
        <time>2021-09-04T09:10:41.000Z</time>
      </trkpt>
      <trkpt lat="43.426314" lon="-73.624433">
        <ele>119.349994</ele>
        <time>2021-09-04T09:10:50.000Z</time>
      </trkpt>
      <trkpt lat="43.4270313333" lon="-73.6243326691">
        <ele>120.130009</ele>
        <time>2021-09-04T09:10:58.000Z</time>
      </trkpt>
      <trkpt lat="43.4277196666" lon="-73.6242243358">
        <ele>120.459993</ele>
        <time>2021-09-04T09:11:06.000Z</time>
      </trkpt>
      <trkpt lat="43.42843" lon="-73.624122">
        <ele>118.76</ele>
        <time>2021-09-04T09:11:14.000Z</time>
      </trkpt>
      <trkpt lat="43.429152" lon="-73.6242429986">
        <ele>115.879992</ele>
        <time>2021-09-04T09:11:22.000Z</time>
      </trkpt>
      <trkpt lat="43.429872" lon="-73.624356">
        <ele>115.100003</ele>
        <time>2021-09-04T09:11:30.000Z</time>
      </trkpt>
      <trkpt lat="43.4307116672" lon="-73.6245159897">
        <ele>114.380001</ele>
        <time>2021-09-04T09:11:39.000Z</time>
      </trkpt>
      <trkpt lat="43.4315433341" lon="-73.6246589835">
        <ele>114.239996</ele>
        <time>2021-09-04T09:11:48.000Z</time>
      </trkpt>
      <trkpt lat="43.4323820009" lon="-73.6248099815">
        <ele>112.350004</ele>
        <time>2021-09-04T09:11:57.000Z</time>
      </trkpt>
      <trkpt lat="43.4332156675" lon="-73.6249579835">
        <ele>111.829992</ele>
        <time>2021-09-04T09:12:06.000Z</time>
      </trkpt>
      <trkpt lat="43.4340343339" lon="-73.6251119897">
        <ele>109.390003</ele>
        <time>2021-09-04T09:12:15.000Z</time>
      </trkpt>
      <trkpt lat="43.434863" lon="-73.625268">
        <ele>110.300009</ele>
        <time>2021-09-04T09:12:24.000Z</time>
      </trkpt>
      <trkpt lat="43.4357343335" lon="-73.6254016628">
        <ele>112.689999</ele>
        <time>2021-09-04T09:12:34.000Z</time>
      </trkpt>
      <trkpt lat="43.4365906668" lon="-73.6255263294">
        <ele>113.630003</ele>
        <time>2021-09-04T09:12:44.000Z</time>
      </trkpt>
      <trkpt lat="43.437459" lon="-73.625677">
        <ele>113.959995</ele>
        <time>2021-09-04T09:12:54.000Z</time>
      </trkpt>
      <trkpt lat="43.4379520001" lon="-73.6257399995">
        <ele>112.670002</ele>
        <time>2021-09-04T09:13:00.000Z</time>
      </trkpt>
      <trkpt lat="43.438453" lon="-73.625795">
        <ele>111.740006</ele>
        <time>2021-09-04T09:13:06.000Z</time>
      </trkpt>
      <trkpt lat="43.439125" lon="-73.62599">
        <ele>111.079997</ele>
        <time>2021-09-04T09:13:14.000Z</time>
      </trkpt>
      <trkpt lat="43.439859" lon="-73.626315">
        <ele>110.220003</ele>
        <time>2021-09-04T09:13:23.000Z</time>
      </trkpt>
      <trkpt lat="43.4405770012" lon="-73.6268289939">
        <ele>111.029993</ele>
        <time>2021-09-04T09:13:32.000Z</time>
      </trkpt>
      <trkpt lat="43.441282" lon="-73.627348">
        <ele>112.529999</ele>
        <time>2021-09-04T09:13:41.000Z</time>
      </trkpt>
      <trkpt lat="43.441846" lon="-73.62768">
        <ele>112.899995</ele>
        <time>2021-09-04T09:13:48.000Z</time>
      </trkpt>
      <trkpt lat="43.442335" lon="-73.627787">
        <ele>112.420007</ele>
        <time>2021-09-04T09:13:54.000Z</time>
      </trkpt>
      <trkpt lat="43.4431180001" lon="-73.6277030009">
        <ele>112.329998</ele>
        <time>2021-09-04T09:14:03.000Z</time>
      </trkpt>
      <trkpt lat="43.443894" lon="-73.627649">
        <ele>112.369991</ele>
        <time>2021-09-04T09:14:12.000Z</time>
      </trkpt>
      <trkpt lat="43.4445693334" lon="-73.6277506641">
        <ele>112.569999</ele>
        <time>2021-09-04T09:14:20.000Z</time>
      </trkpt>
      <trkpt lat="43.4452276668" lon="-73.6278793308">
        <ele>112.479996</ele>
        <time>2021-09-04T09:14:27.000Z</time>
      </trkpt>
      <trkpt lat="43.445883" lon="-73.627997">
        <ele>111.810004</ele>
        <time>2021-09-04T09:14:34.000Z</time>
      </trkpt>
      <trkpt lat="43.446689" lon="-73.628048">
        <ele>110.289995</ele>
        <time>2021-09-04T09:14:43.000Z</time>
      </trkpt>
      <trkpt lat="43.4471650002" lon="-73.627905001">
        <ele>109.659995</ele>
        <time>2021-09-04T09:14:48.000Z</time>
      </trkpt>
      <trkpt lat="43.447636" lon="-73.62778">
        <ele>109.189996</ele>
        <time>2021-09-04T09:14:53.000Z</time>
      </trkpt>
      <trkpt lat="43.448431" lon="-73.627388">
        <ele>109.519995</ele>
        <time>2021-09-04T09:15:02.000Z</time>
      </trkpt>
      <trkpt lat="43.449149" lon="-73.626886">
        <ele>111.479998</ele>
        <time>2021-09-04T09:15:11.000Z</time>
      </trkpt>
      <trkpt lat="43.4495970004" lon="-73.626621002">
        <ele>111.210007</ele>
        <time>2021-09-04T09:15:16.000Z</time>
      </trkpt>
      <trkpt lat="43.450054" lon="-73.626355">
        <ele>110.159993</ele>
        <time>2021-09-04T09:15:22.000Z</time>
      </trkpt>
      <trkpt lat="43.4506460008" lon="-73.6259560038">
        <ele>109.750001</ele>
        <time>2021-09-04T09:15:29.000Z</time>
      </trkpt>
      <trkpt lat="43.451237" lon="-73.625556">
        <ele>111.719994</ele>
        <time>2021-09-04T09:15:36.000Z</time>
      </trkpt>
      <trkpt lat="43.4519940011" lon="-73.6250480062">
        <ele>113.550009</ele>
        <time>2021-09-04T09:15:45.000Z</time>
      </trkpt>
      <trkpt lat="43.452748" lon="-73.624562">
        <ele>114.539998</ele>
        <time>2021-09-04T09:15:54.000Z</time>
      </trkpt>
      <trkpt lat="43.453533" lon="-73.624133">
        <ele>113.959996</ele>
        <time>2021-09-04T09:16:03.000Z</time>
      </trkpt>
      <trkpt lat="43.45424" lon="-73.624053">
        <ele>113.430004</ele>
        <time>2021-09-04T09:16:11.000Z</time>
      </trkpt>
      <trkpt lat="43.4548513332" lon="-73.6240773329">
        <ele>113.52</ele>
        <time>2021-09-04T09:16:18.000Z</time>
      </trkpt>
      <trkpt lat="43.4554526665" lon="-73.6240916662">
        <ele>113.660009</ele>
        <time>2021-09-04T09:16:25.000Z</time>
      </trkpt>
      <trkpt lat="43.456044" lon="-73.62412">
        <ele>113.469997</ele>
        <time>2021-09-04T09:16:32.000Z</time>
      </trkpt>
      <trkpt lat="43.456936" lon="-73.6242219986">
        <ele>112.680001</ele>
        <time>2021-09-04T09:16:42.000Z</time>
      </trkpt>
      <trkpt lat="43.457804" lon="-73.624317">
        <ele>112.48</ele>
        <time>2021-09-04T09:16:52.000Z</time>
      </trkpt>
      <trkpt lat="43.4583819998" lon="-73.6244359987">
        <ele>112.419998</ele>
        <time>2021-09-04T09:16:58.000Z</time>
      </trkpt>
      <trkpt lat="43.458976" lon="-73.624551">
        <ele>113.189994</ele>
        <time>2021-09-04T09:17:05.000Z</time>
      </trkpt>
      <trkpt lat="43.4594240001" lon="-73.6246909991">
        <ele>113.620005</ele>
        <time>2021-09-04T09:17:10.000Z</time>
      </trkpt>
      <trkpt lat="43.459879" lon="-73.624816">
        <ele>113.270004</ele>
        <time>2021-09-04T09:17:15.000Z</time>
      </trkpt>
      <trkpt lat="43.460654" lon="-73.625046">
        <ele>111.889997</ele>
        <time>2021-09-04T09:17:24.000Z</time>
      </trkpt>
      <trkpt lat="43.4611720006" lon="-73.625406997">
        <ele>109.660009</ele>
        <time>2021-09-04T09:17:30.000Z</time>
      </trkpt>
      <trkpt lat="43.461689" lon="-73.625768">
        <ele>106.090008</ele>
        <time>2021-09-04T09:17:36.000Z</time>
      </trkpt>
      <trkpt lat="43.461964" lon="-73.626049">
        <ele>103.009998</ele>
        <time>2021-09-04T09:17:40.000Z</time>
      </trkpt>
      <trkpt lat="43.462291" lon="-73.626568">
        <ele>100.900008</ele>
        <time>2021-09-04T09:17:46.000Z</time>
      </trkpt>
      <trkpt lat="43.462551" lon="-73.627174">
        <ele>99.950004</ele>
        <time>2021-09-04T09:17:52.000Z</time>
      </trkpt>
      <trkpt lat="43.462655" lon="-73.627559">
        <ele>99.140006</ele>
        <time>2021-09-04T09:17:55.000Z</time>
      </trkpt>
      <trkpt lat="43.46271" lon="-73.62799">
        <ele>98.710005</ele>
        <time>2021-09-04T09:17:59.000Z</time>
      </trkpt>
      <trkpt lat="43.462738" lon="-73.628359">
        <ele>98.420001</ele>
        <time>2021-09-04T09:18:02.000Z</time>
      </trkpt>
      <trkpt lat="43.462719" lon="-73.628758">
        <ele>98.479991</ele>
        <time>2021-09-04T09:18:05.000Z</time>
      </trkpt>
      <trkpt lat="43.462559003" lon="-73.6295960021">
        <ele>98.540006</ele>
        <time>2021-09-04T09:18:12.000Z</time>
      </trkpt>
      <trkpt lat="43.462417" lon="-73.630415">
        <ele>100.470009</ele>
        <time>2021-09-04T09:18:19.000Z</time>
      </trkpt>
      <trkpt lat="43.462274" lon="-73.630929">
        <ele>102.500001</ele>
        <time>2021-09-04T09:18:23.000Z</time>
      </trkpt>
      <trkpt lat="43.462138" lon="-73.63131">
        <ele>103.95</ele>
        <time>2021-09-04T09:18:26.000Z</time>
      </trkpt>
      <trkpt lat="43.461952" lon="-73.631635">
        <ele>105.220002</ele>
        <time>2021-09-04T09:18:29.000Z</time>
      </trkpt>
      <trkpt lat="43.461696" lon="-73.631996">
        <ele>107.000006</ele>
        <time>2021-09-04T09:18:33.000Z</time>
      </trkpt>
      <trkpt lat="43.461415" lon="-73.632301">
        <ele>108.739992</ele>
        <time>2021-09-04T09:18:37.000Z</time>
      </trkpt>
      <trkpt lat="43.46108" lon="-73.632521">
        <ele>109.919995</ele>
        <time>2021-09-04T09:18:41.000Z</time>
      </trkpt>
      <trkpt lat="43.460296" lon="-73.63279">
        <ele>111.180004</ele>
        <time>2021-09-04T09:18:50.000Z</time>
      </trkpt>
      <trkpt lat="43.4596760002" lon="-73.6329563366">
        <ele>111.949999</ele>
        <time>2021-09-04T09:18:57.000Z</time>
      </trkpt>
      <trkpt lat="43.4590730002" lon="-73.63311367">
        <ele>113.609998</ele>
        <time>2021-09-04T09:19:04.000Z</time>
      </trkpt>
      <trkpt lat="43.458458" lon="-73.633284">
        <ele>117.300006</ele>
        <time>2021-09-04T09:19:11.000Z</time>
      </trkpt>
      <trkpt lat="43.457845" lon="-73.633602">
        <ele>118.649992</ele>
        <time>2021-09-04T09:19:18.000Z</time>
      </trkpt>
      <trkpt lat="43.4574280005" lon="-73.6338880019">
        <ele>117.439994</ele>
        <time>2021-09-04T09:19:23.000Z</time>
      </trkpt>
      <trkpt lat="43.457" lon="-73.634176">
        <ele>114.500002</ele>
        <time>2021-09-04T09:19:28.000Z</time>
      </trkpt>
      <trkpt lat="43.456365" lon="-73.634762">
        <ele>109.730008</ele>
        <time>2021-09-04T09:19:37.000Z</time>
      </trkpt>
      <trkpt lat="43.456005" lon="-73.635308">
        <ele>105.430005</ele>
        <time>2021-09-04T09:19:43.000Z</time>
      </trkpt>
      <trkpt lat="43.4557200012" lon="-73.6358000021">
        <ele>102.269995</ele>
        <time>2021-09-04T09:19:48.000Z</time>
      </trkpt>
      <trkpt lat="43.455441" lon="-73.636299">
        <ele>100.669993</ele>
        <time>2021-09-04T09:19:53.000Z</time>
      </trkpt>
      <trkpt lat="43.455091" lon="-73.637096">
        <ele>98.880002</ele>
        <time>2021-09-04T09:20:01.000Z</time>
      </trkpt>
      <trkpt lat="43.454886" lon="-73.637854">
        <ele>98.900007</ele>
        <time>2021-09-04T09:20:08.000Z</time>
      </trkpt>
      <trkpt lat="43.4546823402" lon="-73.6387396727">
        <ele>98.680009</ele>
        <time>2021-09-04T09:20:15.000Z</time>
      </trkpt>
      <trkpt lat="43.4544736735" lon="-73.6396183394">
        <ele>99.150006</ele>
        <time>2021-09-04T09:20:22.000Z</time>
      </trkpt>
      <trkpt lat="43.454257" lon="-73.640502">
        <ele>99.979994</ele>
        <time>2021-09-04T09:20:30.000Z</time>
      </trkpt>
      <trkpt lat="43.4540330047" lon="-73.6415440039">
        <ele>99.959992</ele>
        <time>2021-09-04T09:20:39.000Z</time>
      </trkpt>
      <trkpt lat="43.453804" lon="-73.64259">
        <ele>99.860004</ele>
        <time>2021-09-04T09:20:48.000Z</time>
      </trkpt>
      <trkpt lat="43.453691" lon="-73.643519">
        <ele>100.699998</ele>
        <time>2021-09-04T09:20:56.000Z</time>
      </trkpt>
      <trkpt lat="43.453621" lon="-73.644333">
        <ele>101.770003</ele>
        <time>2021-09-04T09:21:03.000Z</time>
      </trkpt>
      <trkpt lat="43.4535410066" lon="-73.6455760013">
        <ele>100.800001</ele>
        <time>2021-09-04T09:21:13.000Z</time>
      </trkpt>
      <trkpt lat="43.453479" lon="-73.646798">
        <ele>99.020003</ele>
        <time>2021-09-04T09:21:23.000Z</time>
      </trkpt>
      <trkpt lat="43.453356" lon="-73.647573">
        <ele>98.940009</ele>
        <time>2021-09-04T09:21:29.000Z</time>
      </trkpt>
      <trkpt lat="43.45313" lon="-73.64854">
        <ele>100.870006</ele>
        <time>2021-09-04T09:21:37.000Z</time>
      </trkpt>
      <trkpt lat="43.452812" lon="-73.649485">
        <ele>105.519999</ele>
        <time>2021-09-04T09:21:45.000Z</time>
      </trkpt>
      <trkpt lat="43.452434" lon="-73.650296">
        <ele>112.009992</ele>
        <time>2021-09-04T09:21:53.000Z</time>
      </trkpt>
      <trkpt lat="43.452171" lon="-73.650717">
        <ele>115.079991</ele>
        <time>2021-09-04T09:21:57.000Z</time>
      </trkpt>
      <trkpt lat="43.451852" lon="-73.651008">
        <ele>119.5</ele>
        <time>2021-09-04T09:22:01.000Z</time>
      </trkpt>
      <trkpt lat="43.451454" lon="-73.651319">
        <ele>123.550003</ele>
        <time>2021-09-04T09:22:06.000Z</time>
      </trkpt>
      <trkpt lat="43.451169" lon="-73.651422">
        <ele>127.959998</ele>
        <time>2021-09-04T09:22:09.000Z</time>
      </trkpt>
      <trkpt lat="43.450875" lon="-73.651467">
        <ele>127.959996</ele>
        <time>2021-09-04T09:22:12.000Z</time>
      </trkpt>
      <trkpt lat="43.450565" lon="-73.651456">
        <ele>130.659992</ele>
        <time>2021-09-04T09:22:15.000Z</time>
      </trkpt>
      <trkpt lat="43.450227" lon="-73.651413">
        <ele>132.370008</ele>
        <time>2021-09-04T09:22:19.000Z</time>
      </trkpt>
      <trkpt lat="43.4494836673" lon="-73.6511266598">
        <ele>133.759998</ele>
        <time>2021-09-04T09:22:28.000Z</time>
      </trkpt>
      <trkpt lat="43.448756334" lon="-73.6508423264">
        <ele>133.060001</ele>
        <time>2021-09-04T09:22:36.000Z</time>
      </trkpt>
      <trkpt lat="43.448025" lon="-73.650554">
        <ele>131.100005</ele>
        <time>2021-09-04T09:22:44.000Z</time>
      </trkpt>
      <trkpt lat="43.4473110003" lon="-73.650293997">
        <ele>125.31</ele>
        <time>2021-09-04T09:22:52.000Z</time>
      </trkpt>
      <trkpt lat="43.446608" lon="-73.650049">
        <ele>119.499991</ele>
        <time>2021-09-04T09:23:00.000Z</time>
      </trkpt>
      <trkpt lat="43.4458296673" lon="-73.6497676596">
        <ele>112.639997</ele>
        <time>2021-09-04T09:23:09.000Z</time>
      </trkpt>
      <trkpt lat="43.4450443339" lon="-73.6495003262">
        <ele>113.759996</ele>
        <time>2021-09-04T09:23:18.000Z</time>
      </trkpt>
      <trkpt lat="43.444255" lon="-73.649216">
        <ele>110.489999</ele>
        <time>2021-09-04T09:23:27.000Z</time>
      </trkpt>
      <trkpt lat="43.443942" lon="-73.649165">
        <ele>109.399994</ele>
        <time>2021-09-04T09:23:31.000Z</time>
      </trkpt>
      <trkpt lat="43.443737" lon="-73.649179">
        <ele>107.010002</ele>
        <time>2021-09-04T09:23:33.000Z</time>
      </trkpt>
      <trkpt lat="43.443362" lon="-73.649269">
        <ele>105.410003</ele>
        <time>2021-09-04T09:23:37.000Z</time>
      </trkpt>
      <trkpt lat="43.443138" lon="-73.649404">
        <ele>103.640007</ele>
        <time>2021-09-04T09:23:40.000Z</time>
      </trkpt>
      <trkpt lat="43.442861" lon="-73.649623">
        <ele>102.099992</ele>
        <time>2021-09-04T09:23:44.000Z</time>
      </trkpt>
      <trkpt lat="43.442587" lon="-73.649919">
        <ele>101.390006</ele>
        <time>2021-09-04T09:23:48.000Z</time>
      </trkpt>
      <trkpt lat="43.442353" lon="-73.650296">
        <ele>100.960006</ele>
        <time>2021-09-04T09:23:52.000Z</time>
      </trkpt>
      <trkpt lat="43.442132" lon="-73.650779">
        <ele>100.229998</ele>
        <time>2021-09-04T09:23:57.000Z</time>
      </trkpt>
      <trkpt lat="43.442033" lon="-73.651283">
        <ele>99.869992</ele>
        <time>2021-09-04T09:24:01.000Z</time>
      </trkpt>
      <trkpt lat="43.441988" lon="-73.651682">
        <ele>99.959991</ele>
        <time>2021-09-04T09:24:04.000Z</time>
      </trkpt>
      <trkpt lat="43.442019" lon="-73.652141">
        <ele>99.940004</ele>
        <time>2021-09-04T09:24:08.000Z</time>
      </trkpt>
      <trkpt lat="43.4421030018" lon="-73.652777999">
        <ele>100.309992</ele>
        <time>2021-09-04T09:24:13.000Z</time>
      </trkpt>
      <trkpt lat="43.442212" lon="-73.653426">
        <ele>100.619998</ele>
        <time>2021-09-04T09:24:18.000Z</time>
      </trkpt>
      <trkpt lat="43.442399" lon="-73.654361">
        <ele>101.020007</ele>
        <time>2021-09-04T09:24:26.000Z</time>
      </trkpt>
      <trkpt lat="43.442764" lon="-73.654879">
        <ele>102.839999</ele>
        <time>2021-09-04T09:24:32.000Z</time>
      </trkpt>
      <trkpt lat="43.442768" lon="-73.654869">
        <ele>102.840002</ele>
        <time>2021-09-04T09:24:32.000Z</time>
      </trkpt>
      <trkpt lat="43.442808" lon="-73.654915">
        <ele>102.839991</ele>
        <time>2021-09-04T09:24:33.000Z</time>
      </trkpt>
      <trkpt lat="43.443477001" lon="-73.6553739949">
        <ele>107.020009</ele>
        <time>2021-09-04T09:24:41.000Z</time>
      </trkpt>
      <trkpt lat="43.444154" lon="-73.655836">
        <ele>111.299993</ele>
        <time>2021-09-04T09:24:49.000Z</time>
      </trkpt>
      <trkpt lat="43.444734" lon="-73.656151">
        <ele>112.909999</ele>
        <time>2021-09-04T09:24:56.000Z</time>
      </trkpt>
      <trkpt lat="43.445175" lon="-73.656415">
        <ele>113.719995</ele>
        <time>2021-09-04T09:25:01.000Z</time>
      </trkpt>
      <trkpt lat="43.4456780002" lon="-73.6566269983">
        <ele>112.859995</ele>
        <time>2021-09-04T09:25:07.000Z</time>
      </trkpt>
      <trkpt lat="43.446177" lon="-73.656821">
        <ele>112.55</ele>
        <time>2021-09-04T09:25:13.000Z</time>
      </trkpt>
      <trkpt lat="43.446717" lon="-73.657038">
        <ele>112.590002</ele>
        <time>2021-09-04T09:25:19.000Z</time>
      </trkpt>
      <trkpt lat="43.447194" lon="-73.657332">
        <ele>111.89</ele>
        <time>2021-09-04T09:25:25.000Z</time>
      </trkpt>
      <trkpt lat="43.447537" lon="-73.657682">
        <ele>111.469999</ele>
        <time>2021-09-04T09:25:30.000Z</time>
      </trkpt>
      <trkpt lat="43.447768" lon="-73.658215">
        <ele>111.719998</ele>
        <time>2021-09-04T09:25:35.000Z</time>
      </trkpt>
      <trkpt lat="43.448" lon="-73.659018">
        <ele>113.369992</ele>
        <time>2021-09-04T09:25:42.000Z</time>
      </trkpt>
      <trkpt lat="43.448055" lon="-73.659393">
        <ele>114.430005</ele>
        <time>2021-09-04T09:25:45.000Z</time>
      </trkpt>
      <trkpt lat="43.448061" lon="-73.659972">
        <ele>117.439997</ele>
        <time>2021-09-04T09:25:50.000Z</time>
      </trkpt>
      <trkpt lat="43.447999" lon="-73.660467">
        <ele>120.189998</ele>
        <time>2021-09-04T09:25:54.000Z</time>
      </trkpt>
      <trkpt lat="43.447901" lon="-73.660811">
        <ele>121.629995</ele>
        <time>2021-09-04T09:25:57.000Z</time>
      </trkpt>
      <trkpt lat="43.447754" lon="-73.661173">
        <ele>122.399996</ele>
        <time>2021-09-04T09:26:00.000Z</time>
      </trkpt>
      <trkpt lat="43.447406" lon="-73.661775">
        <ele>122.100005</ele>
        <time>2021-09-04T09:26:06.000Z</time>
      </trkpt>
      <trkpt lat="43.4468510016" lon="-73.6623920059">
        <ele>119.690008</ele>
        <time>2021-09-04T09:26:14.000Z</time>
      </trkpt>
      <trkpt lat="43.446283" lon="-73.663024">
        <ele>119.790001</ele>
        <time>2021-09-04T09:26:22.000Z</time>
      </trkpt>
      <trkpt lat="43.445863" lon="-73.663414">
        <ele>119.309996</ele>
        <time>2021-09-04T09:26:28.000Z</time>
      </trkpt>
      <trkpt lat="43.445635" lon="-73.663676">
        <ele>118.069999</ele>
        <time>2021-09-04T09:26:31.000Z</time>
      </trkpt>
      <trkpt lat="43.445458" lon="-73.663961">
        <ele>117.56</ele>
        <time>2021-09-04T09:26:34.000Z</time>
      </trkpt>
      <trkpt lat="43.445226" lon="-73.664581">
        <ele>117.159993</ele>
        <time>2021-09-04T09:26:40.000Z</time>
      </trkpt>
      <trkpt lat="43.445154" lon="-73.664897">
        <ele>117.68</ele>
        <time>2021-09-04T09:26:43.000Z</time>
      </trkpt>
      <trkpt lat="43.445101" lon="-73.665559">
        <ele>119.799991</ele>
        <time>2021-09-04T09:26:48.000Z</time>
      </trkpt>
      <trkpt lat="43.445156" lon="-73.665757">
        <ele>119.799993</ele>
        <time>2021-09-04T09:26:50.000Z</time>
      </trkpt>
      <trkpt lat="43.445167" lon="-73.665975">
        <ele>120.309997</ele>
        <time>2021-09-04T09:26:52.000Z</time>
      </trkpt>
      <trkpt lat="43.445273" lon="-73.666339">
        <ele>120.689991</ele>
        <time>2021-09-04T09:26:55.000Z</time>
      </trkpt>
      <trkpt lat="43.44541" lon="-73.666625">
        <ele>122.910006</ele>
        <time>2021-09-04T09:26:58.000Z</time>
      </trkpt>
      <trkpt lat="43.445684" lon="-73.667001">
        <ele>123.760006</ele>
        <time>2021-09-04T09:27:02.000Z</time>
      </trkpt>
      <trkpt lat="43.446241" lon="-73.667718">
        <ele>120.059996</ele>
        <time>2021-09-04T09:27:10.000Z</time>
      </trkpt>
      <trkpt lat="43.44641" lon="-73.668204">
        <ele>117.849998</ele>
        <time>2021-09-04T09:27:14.000Z</time>
      </trkpt>
      <trkpt lat="43.446487" lon="-73.668605">
        <ele>112.169991</ele>
        <time>2021-09-04T09:27:17.000Z</time>
      </trkpt>
      <trkpt lat="43.446527" lon="-73.669494">
        <ele>106.700007</ele>
        <time>2021-09-04T09:27:24.000Z</time>
      </trkpt>
      <trkpt lat="43.446477" lon="-73.670391">
        <ele>106.600007</ele>
        <time>2021-09-04T09:27:31.000Z</time>
      </trkpt>
      <trkpt lat="43.446382" lon="-73.671123">
        <ele>110.990009</ele>
        <time>2021-09-04T09:27:37.000Z</time>
      </trkpt>
      <trkpt lat="43.446203" lon="-73.672158">
        <ele>116.140004</ele>
        <time>2021-09-04T09:27:46.000Z</time>
      </trkpt>
      <trkpt lat="43.446195" lon="-73.672556">
        <ele>118.519994</ele>
        <time>2021-09-04T09:27:49.000Z</time>
      </trkpt>
      <trkpt lat="43.446254" lon="-73.673366">
        <ele>125.240007</ele>
        <time>2021-09-04T09:27:56.000Z</time>
      </trkpt>
      <trkpt lat="43.446182" lon="-73.674012">
        <ele>126.439994</ele>
        <time>2021-09-04T09:28:01.000Z</time>
      </trkpt>
      <trkpt lat="43.446045" lon="-73.674515">
        <ele>128.280004</ele>
        <time>2021-09-04T09:28:05.000Z</time>
      </trkpt>
      <trkpt lat="43.445762" lon="-73.674969">
        <ele>128.169992</ele>
        <time>2021-09-04T09:28:10.000Z</time>
      </trkpt>
      <trkpt lat="43.445443" lon="-73.675246">
        <ele>127.280007</ele>
        <time>2021-09-04T09:28:14.000Z</time>
      </trkpt>
      <trkpt lat="43.444662" lon="-73.675677">
        <ele>123.05</ele>
        <time>2021-09-04T09:28:23.000Z</time>
      </trkpt>
      <trkpt lat="43.444315" lon="-73.675958">
        <ele>120.070004</ele>
        <time>2021-09-04T09:28:27.000Z</time>
      </trkpt>
      <trkpt lat="43.443998" lon="-73.676327">
        <ele>118.679998</ele>
        <time>2021-09-04T09:28:32.000Z</time>
      </trkpt>
      <trkpt lat="43.443896" lon="-73.676485">
        <ele>117.190003</ele>
        <time>2021-09-04T09:28:34.000Z</time>
      </trkpt>
      <trkpt lat="43.443682" lon="-73.677068">
        <ele>115.409995</ele>
        <time>2021-09-04T09:28:39.000Z</time>
      </trkpt>
      <trkpt lat="43.443597" lon="-73.677471">
        <ele>114.670001</ele>
        <time>2021-09-04T09:28:42.000Z</time>
      </trkpt>
      <trkpt lat="43.443458" lon="-73.678058">
        <ele>114.270002</ele>
        <time>2021-09-04T09:28:47.000Z</time>
      </trkpt>
      <trkpt lat="43.443227" lon="-73.678646">
        <ele>114.670005</ele>
        <time>2021-09-04T09:28:52.000Z</time>
      </trkpt>
      <trkpt lat="43.442994" lon="-73.679143">
        <ele>114.549998</ele>
        <time>2021-09-04T09:28:57.000Z</time>
      </trkpt>
      <trkpt lat="43.4426520015" lon="-73.6797290033">
        <ele>112.970007</ele>
        <time>2021-09-04T09:29:03.000Z</time>
      </trkpt>
      <trkpt lat="43.442301" lon="-73.680308">
        <ele>111.190006</ele>
        <time>2021-09-04T09:29:09.000Z</time>
      </trkpt>
      <trkpt lat="43.441686" lon="-73.681146">
        <ele>108.250002</ele>
        <time>2021-09-04T09:29:19.000Z</time>
      </trkpt>
      <trkpt lat="43.441316" lon="-73.681551">
        <ele>108.960003</ele>
        <time>2021-09-04T09:29:24.000Z</time>
      </trkpt>
      <trkpt lat="43.441019" lon="-73.681996">
        <ele>108.56</ele>
        <time>2021-09-04T09:29:29.000Z</time>
      </trkpt>
      <trkpt lat="43.440601" lon="-73.682932">
        <ele>108.300007</ele>
        <time>2021-09-04T09:29:38.000Z</time>
      </trkpt>
      <trkpt lat="43.440236" lon="-73.683486">
        <ele>108.580002</ele>
        <time>2021-09-04T09:29:44.000Z</time>
      </trkpt>
      <trkpt lat="43.439894" lon="-73.683838">
        <ele>109.239999</ele>
        <time>2021-09-04T09:29:49.000Z</time>
      </trkpt>
      <trkpt lat="43.439299" lon="-73.684193">
        <ele>110.230003</ele>
        <time>2021-09-04T09:29:56.000Z</time>
      </trkpt>
      <trkpt lat="43.438935" lon="-73.684366">
        <ele>112.170003</ele>
        <time>2021-09-04T09:30:00.000Z</time>
      </trkpt>
      <trkpt lat="43.438535" lon="-73.684465">
        <ele>114.499998</ele>
        <time>2021-09-04T09:30:05.000Z</time>
      </trkpt>
      <trkpt lat="43.4378129999" lon="-73.6844129993">
        <ele>115.759992</ele>
        <time>2021-09-04T09:30:13.000Z</time>
      </trkpt>
      <trkpt lat="43.437095" lon="-73.684342">
        <ele>113.139991</ele>
        <time>2021-09-04T09:30:21.000Z</time>
      </trkpt>
      <trkpt lat="43.436748" lon="-73.684377">
        <ele>112.839991</ele>
        <time>2021-09-04T09:30:25.000Z</time>
      </trkpt>
      <trkpt lat="43.436327" lon="-73.684509">
        <ele>113.540002</ele>
        <time>2021-09-04T09:30:30.000Z</time>
      </trkpt>
      <trkpt lat="43.436096" lon="-73.68467">
        <ele>114.379998</ele>
        <time>2021-09-04T09:30:33.000Z</time>
      </trkpt>
      <trkpt lat="43.4357290008" lon="-73.6851010027">
        <ele>115.650006</ele>
        <time>2021-09-04T09:30:38.000Z</time>
      </trkpt>
      <trkpt lat="43.435351" lon="-73.685522">
        <ele>115.809991</ele>
        <time>2021-09-04T09:30:43.000Z</time>
      </trkpt>
      <trkpt lat="43.43477" lon="-73.686072">
        <ele>116.839991</ele>
        <time>2021-09-04T09:30:51.000Z</time>
      </trkpt>
      <trkpt lat="43.434428" lon="-73.686291">
        <ele>117.309995</ele>
        <time>2021-09-04T09:30:55.000Z</time>
      </trkpt>
      <trkpt lat="43.433541" lon="-73.6864260019">
        <ele>119.879991</ele>
        <time>2021-09-04T09:31:05.000Z</time>
      </trkpt>
      <trkpt lat="43.432674" lon="-73.686555">
        <ele>123.280003</ele>
        <time>2021-09-04T09:31:15.000Z</time>
      </trkpt>
      <trkpt lat="43.432237" lon="-73.686709">
        <ele>123.36</ele>
        <time>2021-09-04T09:31:20.000Z</time>
      </trkpt>
      <trkpt lat="43.431682" lon="-73.687051">
        <ele>122.049998</ele>
        <time>2021-09-04T09:31:27.000Z</time>
      </trkpt>
      <trkpt lat="43.4313080004" lon="-73.6873910022">
        <ele>121.440004</ele>
        <time>2021-09-04T09:31:32.000Z</time>
      </trkpt>
      <trkpt lat="43.430925" lon="-73.687723">
        <ele>120.739994</ele>
        <time>2021-09-04T09:31:37.000Z</time>
      </trkpt>
      <trkpt lat="43.430413" lon="-73.688045">
        <ele>119.609996</ele>
        <time>2021-09-04T09:31:43.000Z</time>
      </trkpt>
      <trkpt lat="43.429886" lon="-73.688332">
        <ele>118.599999</ele>
        <time>2021-09-04T09:31:49.000Z</time>
      </trkpt>
      <trkpt lat="43.429554" lon="-73.688646">
        <ele>117.819995</ele>
        <time>2021-09-04T09:31:53.000Z</time>
      </trkpt>
      <trkpt lat="43.429011" lon="-73.689028">
        <ele>115.729996</ele>
        <time>2021-09-04T09:32:00.000Z</time>
      </trkpt>
      <trkpt lat="43.428422" lon="-73.689896">
        <ele>110.130001</ele>
        <time>2021-09-04T09:32:10.000Z</time>
      </trkpt>
      <trkpt lat="43.427893" lon="-73.690822">
        <ele>104.040006</ele>
        <time>2021-09-04T09:32:20.000Z</time>
      </trkpt>
      <trkpt lat="43.427625" lon="-73.691235">
        <ele>103.730006</ele>
        <time>2021-09-04T09:32:24.000Z</time>
      </trkpt>
      <trkpt lat="43.427528" lon="-73.691484">
        <ele>103.909996</ele>
        <time>2021-09-04T09:32:26.000Z</time>
      </trkpt>
      <trkpt lat="43.4271090022" lon="-73.6921990051">
        <ele>106.350003</ele>
        <time>2021-09-04T09:32:33.000Z</time>
      </trkpt>
      <trkpt lat="43.426683" lon="-73.692919">
        <ele>110.510002</ele>
        <time>2021-09-04T09:32:41.000Z</time>
      </trkpt>
      <trkpt lat="43.426248" lon="-73.693502">
        <ele>112.130009</ele>
        <time>2021-09-04T09:32:48.000Z</time>
      </trkpt>
      <trkpt lat="43.425678" lon="-73.69417">
        <ele>111.379995</ele>
        <time>2021-09-04T09:32:56.000Z</time>
      </trkpt>
      <trkpt lat="43.425441" lon="-73.694403">
        <ele>110.41</ele>
        <time>2021-09-04T09:32:59.000Z</time>
      </trkpt>
      <trkpt lat="43.4249780006" lon="-73.6947250024">
        <ele>109.440003</ele>
        <time>2021-09-04T09:33:05.000Z</time>
      </trkpt>
      <trkpt lat="43.424531" lon="-73.69506">
        <ele>109.620008</ele>
        <time>2021-09-04T09:33:11.000Z</time>
      </trkpt>
      <trkpt lat="43.4240020001" lon="-73.6952200014">
        <ele>111.190005</ele>
        <time>2021-09-04T09:33:17.000Z</time>
      </trkpt>
      <trkpt lat="43.423488" lon="-73.695399">
        <ele>112.610003</ele>
        <time>2021-09-04T09:33:23.000Z</time>
      </trkpt>
      <trkpt lat="43.422698" lon="-73.695465">
        <ele>116.399999</ele>
        <time>2021-09-04T09:33:32.000Z</time>
      </trkpt>
      <trkpt lat="43.42209" lon="-73.6954109996">
        <ele>117.770008</ele>
        <time>2021-09-04T09:33:39.000Z</time>
      </trkpt>
      <trkpt lat="43.421509" lon="-73.695371">
        <ele>118.150006</ele>
        <time>2021-09-04T09:33:45.000Z</time>
      </trkpt>
      <trkpt lat="43.4210140002" lon="-73.6955120011">
        <ele>119.029994</ele>
        <time>2021-09-04T09:33:51.000Z</time>
      </trkpt>
      <trkpt lat="43.420514" lon="-73.695665">
        <ele>119.339992</ele>
        <time>2021-09-04T09:33:57.000Z</time>
      </trkpt>
      <trkpt lat="43.419893" lon="-73.695871">
        <ele>119.670005</ele>
        <time>2021-09-04T09:34:04.000Z</time>
      </trkpt>
      <trkpt lat="43.4192346674" lon="-73.6961670066">
        <ele>120.820007</ele>
        <time>2021-09-04T09:34:12.000Z</time>
      </trkpt>
      <trkpt lat="43.418560334" lon="-73.6964750066">
        <ele>121.429993</ele>
        <time>2021-09-04T09:34:20.000Z</time>
      </trkpt>
      <trkpt lat="43.417892" lon="-73.696768">
        <ele>121.100007</ele>
        <time>2021-09-04T09:34:28.000Z</time>
      </trkpt>
      <trkpt lat="43.417444" lon="-73.696842">
        <ele>119.08</ele>
        <time>2021-09-04T09:34:33.000Z</time>
      </trkpt>
      <trkpt lat="43.417185" lon="-73.696898">
        <ele>117.790005</ele>
        <time>2021-09-04T09:34:36.000Z</time>
      </trkpt>
      <trkpt lat="43.417259" lon="-73.697183">
        <ele>116.339992</ele>
        <time>2021-09-04T09:34:38.000Z</time>
      </trkpt>
      <trkpt lat="43.4173680016" lon="-73.6977929989">
        <ele>110.530003</ele>
        <time>2021-09-04T09:34:43.000Z</time>
      </trkpt>
      <trkpt lat="43.417491" lon="-73.698384">
        <ele>105.970003</ele>
        <time>2021-09-04T09:34:48.000Z</time>
      </trkpt>
      <trkpt lat="43.417532" lon="-73.698881">
        <ele>103.140009</ele>
        <time>2021-09-04T09:34:52.000Z</time>
      </trkpt>
      <trkpt lat="43.417516" lon="-73.699516">
        <ele>100.639992</ele>
        <time>2021-09-04T09:34:57.000Z</time>
      </trkpt>
      <trkpt lat="43.417503" lon="-73.699809">
        <ele>100.820002</ele>
        <time>2021-09-04T09:34:59.000Z</time>
      </trkpt>
      <trkpt lat="43.417434" lon="-73.700434">
        <ele>99.390003</ele>
        <time>2021-09-04T09:35:04.000Z</time>
      </trkpt>
      <trkpt lat="43.417319" lon="-73.700885">
        <ele>99.359999</ele>
        <time>2021-09-04T09:35:08.000Z</time>
      </trkpt>
      <trkpt lat="43.417154" lon="-73.701236">
        <ele>99.579991</ele>
        <time>2021-09-04T09:35:11.000Z</time>
      </trkpt>
      <trkpt lat="43.416923" lon="-73.701576">
        <ele>99.699999</ele>
        <time>2021-09-04T09:35:15.000Z</time>
      </trkpt>
      <trkpt lat="43.416648" lon="-73.701969">
        <ele>99.680001</ele>
        <time>2021-09-04T09:35:19.000Z</time>
      </trkpt>
      <trkpt lat="43.416487" lon="-73.702277">
        <ele>99.849991</ele>
        <time>2021-09-04T09:35:22.000Z</time>
      </trkpt>
      <trkpt lat="43.416373" lon="-73.703033">
        <ele>100.160003</ele>
        <time>2021-09-04T09:35:28.000Z</time>
      </trkpt>
      <trkpt lat="43.416352" lon="-73.703425">
        <ele>100.219992</ele>
        <time>2021-09-04T09:35:31.000Z</time>
      </trkpt>
      <trkpt lat="43.416392" lon="-73.703799">
        <ele>100.239997</ele>
        <time>2021-09-04T09:35:34.000Z</time>
      </trkpt>
      <trkpt lat="43.416483" lon="-73.704153">
        <ele>100.289991</ele>
        <time>2021-09-04T09:35:37.000Z</time>
      </trkpt>
      <trkpt lat="43.416597" lon="-73.704514">
        <ele>100.740001</ele>
        <time>2021-09-04T09:35:40.000Z</time>
      </trkpt>
      <trkpt lat="43.416766" lon="-73.704827">
        <ele>100.89</ele>
        <time>2021-09-04T09:35:43.000Z</time>
      </trkpt>
      <trkpt lat="43.416954" lon="-73.7051">
        <ele>100.839992</ele>
        <time>2021-09-04T09:35:46.000Z</time>
      </trkpt>
      <trkpt lat="43.417235" lon="-73.705189">
        <ele>100.440003</ele>
        <time>2021-09-04T09:35:49.000Z</time>
      </trkpt>
      <trkpt lat="43.417457" lon="-73.705158">
        <ele>100.500003</ele>
        <time>2021-09-04T09:35:51.000Z</time>
      </trkpt>
      <trkpt lat="43.417523" lon="-73.705095">
        <ele>100.589993</ele>
        <time>2021-09-04T09:35:52.000Z</time>
      </trkpt>
      <trkpt lat="43.417532" lon="-73.705051">
        <ele>100.630004</ele>
        <time>2021-09-04T09:35:52.000Z</time>
      </trkpt>
      <trkpt lat="43.417604" lon="-73.704976">
        <ele>100.690002</ele>
        <time>2021-09-04T09:35:53.000Z</time>
      </trkpt>
      <trkpt lat="43.417698" lon="-73.704969">
        <ele>100.730009</ele>
        <time>2021-09-04T09:35:54.000Z</time>
      </trkpt>
      <trkpt lat="43.417844" lon="-73.705136">
        <ele>100.729999</ele>
        <time>2021-09-04T09:35:56.000Z</time>
      </trkpt>
      <trkpt lat="43.418203" lon="-73.705715">
        <ele>100.430003</ele>
        <time>2021-09-04T09:36:02.000Z</time>
      </trkpt>
      <trkpt lat="43.418283" lon="-73.705956">
        <ele>100.429995</ele>
        <time>2021-09-04T09:36:04.000Z</time>
      </trkpt>
      <trkpt lat="43.418414" lon="-73.706214">
        <ele>100.330006</ele>
        <time>2021-09-04T09:36:07.000Z</time>
      </trkpt>
      <trkpt lat="43.418257" lon="-73.706484">
        <ele>101.200008</ele>
        <time>2021-09-04T09:36:10.000Z</time>
      </trkpt>
      <trkpt lat="43.418337" lon="-73.706594">
        <ele>100.979993</ele>
        <time>2021-09-04T09:36:11.000Z</time>
      </trkpt>
      <trkpt lat="43.418509" lon="-73.706658">
        <ele>100.460009</ele>
        <time>2021-09-04T09:36:13.000Z</time>
      </trkpt>
      <trkpt lat="43.418613" lon="-73.706743">
        <ele>100.330006</ele>
        <time>2021-09-04T09:36:14.000Z</time>
      </trkpt>
      <trkpt lat="43.419163" lon="-73.707684">
        <ele>100.119996</ele>
        <time>2021-09-04T09:36:24.000Z</time>
      </trkpt>
      <trkpt lat="43.419191" lon="-73.707888">
        <ele>100.209991</ele>
        <time>2021-09-04T09:36:26.000Z</time>
      </trkpt>
      <trkpt lat="43.419134" lon="-73.708154">
        <ele>100.221752459</ele>
        <time>2021-09-04T09:36:28.000Z</time>
      </trkpt>
      <trkpt lat="43.419177" lon="-73.708234">
        <ele>100.225973098</ele>
        <time>2021-09-04T09:36:29.000Z</time>
      </trkpt>
      <trkpt lat="43.419193" lon="-73.708285">
        <ele>100.228329081</ele>
        <time>2021-09-04T09:36:29.000Z</time>
      </trkpt>
    </trkseg>
  </trk>
</gpx>

<!--
Performance optimized by W3 Total Cache. Learn more: https://www.boldgrid.com/w3-total-cache/?utm_source=w3tc&utm_medium=footer_comment&utm_campaign=free_plugin

Page Caching using Disk: Enhanced{w3tc_pagecache_reject_reason} 

Served from: www.aquabike.world @ 2026-05-10 10:44:20 by W3 Total Cache
-->